<?xml version="1.0" encoding="UTF-8" standalone="no" ?>
<gpx xmlns="http://www.topografix.com/GPX/1/1" xmlns:xsi="http://www.w3.org/2001/XMLSchema-instance" xsi:schemaLocation="http://www.topografix.com/GPX/1/1 http://www.topografix.com/GPX/1/1/gpx.xsd" version="1.1" creator="VisuGPX - https://www.visugpx.com">
  <metadata>
    <name>Perigneux 20km</name>
    <desc><![CDATA[fait le 01/07/2023 au départ de Biaud -  Lieu privé . ]]></desc>
  </metadata>
  <trk>
    <name><![CDATA[2023-07-01 17:58:17]]></name>
    <extensions>
      <line xmlns="http://www.topografix.com/GPX/gpx_style/0/2">
        <color>0000FF</color>
        <width>4</width>
      </line>
    </extensions>
    <trkseg>
      <trkpt lat="45.44436" lon="4.13059">
        <ele>614.42</ele>
        <time>2023-07-01T11:47:03Z</time>
      </trkpt>
      <trkpt lat="45.4441" lon="4.13068">
        <ele>624.03</ele>
        <time>2023-07-01T11:47:22Z</time>
      </trkpt>
      <trkpt lat="45.44403" lon="4.1306">
        <ele>624.99</ele>
        <time>2023-07-01T11:47:28Z</time>
      </trkpt>
      <trkpt lat="45.44388" lon="4.1302">
        <ele>622.59</ele>
        <time>2023-07-01T11:47:47Z</time>
      </trkpt>
      <trkpt lat="45.44371" lon="4.12991">
        <ele>628.36</ele>
        <time>2023-07-01T11:48:08Z</time>
      </trkpt>
      <trkpt lat="45.44344" lon="4.13004">
        <ele>627.88</ele>
        <time>2023-07-01T11:48:28Z</time>
      </trkpt>
      <trkpt lat="45.44313" lon="4.13018">
        <ele>623.07</ele>
        <time>2023-07-01T11:48:49Z</time>
      </trkpt>
      <trkpt lat="45.44276" lon="4.13035">
        <ele>623.07</ele>
        <time>2023-07-01T11:49:14Z</time>
      </trkpt>
      <trkpt lat="45.44245" lon="4.13037">
        <ele>623.07</ele>
        <time>2023-07-01T11:49:34Z</time>
      </trkpt>
      <trkpt lat="45.44215" lon="4.13024">
        <ele>624.51</ele>
        <time>2023-07-01T11:49:56Z</time>
      </trkpt>
      <trkpt lat="45.44189" lon="4.1301">
        <ele>624.99</ele>
        <time>2023-07-01T11:50:14Z</time>
      </trkpt>
      <trkpt lat="45.44161" lon="4.12997">
        <ele>624.99</ele>
        <time>2023-07-01T11:50:34Z</time>
      </trkpt>
      <trkpt lat="45.44134" lon="4.12989">
        <ele>624.03</ele>
        <time>2023-07-01T11:50:52Z</time>
      </trkpt>
      <trkpt lat="45.44106" lon="4.12983">
        <ele>625.47</ele>
        <time>2023-07-01T11:51:09Z</time>
      </trkpt>
      <trkpt lat="45.44085" lon="4.1298">
        <ele>626.44</ele>
        <time>2023-07-01T11:51:25Z</time>
      </trkpt>
      <trkpt lat="45.44059" lon="4.12978">
        <ele>625.96</ele>
        <time>2023-07-01T11:51:43Z</time>
      </trkpt>
      <trkpt lat="45.44034" lon="4.12976">
        <ele>625.47</ele>
        <time>2023-07-01T11:52:00Z</time>
      </trkpt>
      <trkpt lat="45.44005" lon="4.12975">
        <ele>623.55</ele>
        <time>2023-07-01T11:52:19Z</time>
      </trkpt>
      <trkpt lat="45.43976" lon="4.12985">
        <ele>623.07</ele>
        <time>2023-07-01T11:52:39Z</time>
      </trkpt>
      <trkpt lat="45.43944" lon="4.13003">
        <ele>622.11</ele>
        <time>2023-07-01T11:53:02Z</time>
      </trkpt>
      <trkpt lat="45.4392" lon="4.13019">
        <ele>618.26</ele>
        <time>2023-07-01T11:53:19Z</time>
      </trkpt>
      <trkpt lat="45.43896" lon="4.13035">
        <ele>614.9</ele>
        <time>2023-07-01T11:53:36Z</time>
      </trkpt>
      <trkpt lat="45.43872" lon="4.13047">
        <ele>613.46</ele>
        <time>2023-07-01T11:53:52Z</time>
      </trkpt>
      <trkpt lat="45.43845" lon="4.13056">
        <ele>613.46</ele>
        <time>2023-07-01T11:54:10Z</time>
      </trkpt>
      <trkpt lat="45.43818" lon="4.13065">
        <ele>612.02</ele>
        <time>2023-07-01T11:54:28Z</time>
      </trkpt>
      <trkpt lat="45.43792" lon="4.1308">
        <ele>609.13</ele>
        <time>2023-07-01T11:54:46Z</time>
      </trkpt>
      <trkpt lat="45.43771" lon="4.13094">
        <ele>608.17</ele>
        <time>2023-07-01T11:55:02Z</time>
      </trkpt>
      <trkpt lat="45.43749" lon="4.13109">
        <ele>606.25</ele>
        <time>2023-07-01T11:55:20Z</time>
      </trkpt>
      <trkpt lat="45.43724" lon="4.13123">
        <ele>604.33</ele>
        <time>2023-07-01T11:55:37Z</time>
      </trkpt>
      <trkpt lat="45.43696" lon="4.13136">
        <ele>601.44</ele>
        <time>2023-07-01T11:55:55Z</time>
      </trkpt>
      <trkpt lat="45.43676" lon="4.13157">
        <ele>600.48</ele>
        <time>2023-07-01T11:56:11Z</time>
      </trkpt>
      <trkpt lat="45.43658" lon="4.13175">
        <ele>596.15</ele>
        <time>2023-07-01T11:56:26Z</time>
      </trkpt>
      <trkpt lat="45.43632" lon="4.13197">
        <ele>592.79</ele>
        <time>2023-07-01T11:56:45Z</time>
      </trkpt>
      <trkpt lat="45.43625" lon="4.13201">
        <ele>592.31</ele>
        <time>2023-07-01T11:56:50Z</time>
      </trkpt>
      <trkpt lat="45.436" lon="4.13223">
        <ele>587.02</ele>
        <time>2023-07-01T11:57:08Z</time>
      </trkpt>
      <trkpt lat="45.4358" lon="4.13238">
        <ele>586.54</ele>
        <time>2023-07-01T11:57:21Z</time>
      </trkpt>
      <trkpt lat="45.43557" lon="4.13258">
        <ele>589.91</ele>
        <time>2023-07-01T11:57:37Z</time>
      </trkpt>
      <trkpt lat="45.43535" lon="4.13283">
        <ele>589.91</ele>
        <time>2023-07-01T11:57:56Z</time>
      </trkpt>
      <trkpt lat="45.43518" lon="4.13312">
        <ele>588.46</ele>
        <time>2023-07-01T11:58:14Z</time>
      </trkpt>
      <trkpt lat="45.43504" lon="4.13335">
        <ele>587.98</ele>
        <time>2023-07-01T11:58:29Z</time>
      </trkpt>
      <trkpt lat="45.43482" lon="4.13365">
        <ele>585.58</ele>
        <time>2023-07-01T11:58:50Z</time>
      </trkpt>
      <trkpt lat="45.43461" lon="4.13383">
        <ele>582.7</ele>
        <time>2023-07-01T11:59:06Z</time>
      </trkpt>
      <trkpt lat="45.43437" lon="4.13404">
        <ele>580.29</ele>
        <time>2023-07-01T11:59:26Z</time>
      </trkpt>
      <trkpt lat="45.43416" lon="4.13423">
        <ele>576.93</ele>
        <time>2023-07-01T11:59:45Z</time>
      </trkpt>
      <trkpt lat="45.43416" lon="4.13422">
        <ele>574.53</ele>
        <time>2023-07-01T12:00:07Z</time>
      </trkpt>
      <trkpt lat="45.43412" lon="4.13422">
        <ele>574.04</ele>
        <time>2023-07-01T12:00:16Z</time>
      </trkpt>
      <trkpt lat="45.4339" lon="4.13419">
        <ele>572.6</ele>
        <time>2023-07-01T12:00:27Z</time>
      </trkpt>
      <trkpt lat="45.4337" lon="4.134">
        <ele>573.56</ele>
        <time>2023-07-01T12:00:38Z</time>
      </trkpt>
      <trkpt lat="45.43352" lon="4.13368">
        <ele>572.6</ele>
        <time>2023-07-01T12:00:49Z</time>
      </trkpt>
      <trkpt lat="45.4334" lon="4.13334">
        <ele>571.16</ele>
        <time>2023-07-01T12:01:04Z</time>
      </trkpt>
      <trkpt lat="45.43335" lon="4.13295">
        <ele>572.6</ele>
        <time>2023-07-01T12:01:20Z</time>
      </trkpt>
      <trkpt lat="45.43324" lon="4.13259">
        <ele>571.16</ele>
        <time>2023-07-01T12:01:37Z</time>
      </trkpt>
      <trkpt lat="45.43306" lon="4.13234">
        <ele>569.24</ele>
        <time>2023-07-01T12:01:55Z</time>
      </trkpt>
      <trkpt lat="45.43284" lon="4.13205">
        <ele>573.56</ele>
        <time>2023-07-01T12:02:14Z</time>
      </trkpt>
      <trkpt lat="45.4327" lon="4.13181">
        <ele>578.85</ele>
        <time>2023-07-01T12:02:30Z</time>
      </trkpt>
      <trkpt lat="45.43269" lon="4.1318">
        <ele>578.85</ele>
        <time>2023-07-01T12:02:31Z</time>
      </trkpt>
      <trkpt lat="45.4325" lon="4.13153">
        <ele>584.14</ele>
        <time>2023-07-01T12:02:48Z</time>
      </trkpt>
      <trkpt lat="45.43223" lon="4.13126">
        <ele>593.75</ele>
        <time>2023-07-01T12:03:11Z</time>
      </trkpt>
      <trkpt lat="45.43193" lon="4.13105">
        <ele>601.92</ele>
        <time>2023-07-01T12:03:34Z</time>
      </trkpt>
      <trkpt lat="45.4316" lon="4.13102">
        <ele>607.21</ele>
        <time>2023-07-01T12:03:57Z</time>
      </trkpt>
      <trkpt lat="45.43133" lon="4.13095">
        <ele>611.06</ele>
        <time>2023-07-01T12:04:16Z</time>
      </trkpt>
      <trkpt lat="45.43107" lon="4.13074">
        <ele>612.02</ele>
        <time>2023-07-01T12:04:37Z</time>
      </trkpt>
      <trkpt lat="45.43098" lon="4.13044">
        <ele>612.02</ele>
        <time>2023-07-01T12:04:54Z</time>
      </trkpt>
      <trkpt lat="45.4308" lon="4.13024">
        <ele>611.54</ele>
        <time>2023-07-01T12:05:11Z</time>
      </trkpt>
      <trkpt lat="45.43053" lon="4.13027">
        <ele>612.02</ele>
        <time>2023-07-01T12:05:30Z</time>
      </trkpt>
      <trkpt lat="45.43024" lon="4.13014">
        <ele>612.98</ele>
        <time>2023-07-01T12:05:49Z</time>
      </trkpt>
      <trkpt lat="45.42996" lon="4.12994">
        <ele>610.57</ele>
        <time>2023-07-01T12:06:08Z</time>
      </trkpt>
      <trkpt lat="45.42971" lon="4.12986">
        <ele>611.54</ele>
        <time>2023-07-01T12:06:25Z</time>
      </trkpt>
      <trkpt lat="45.42954" lon="4.13012">
        <ele>611.54</ele>
        <time>2023-07-01T12:06:42Z</time>
      </trkpt>
      <trkpt lat="45.42934" lon="4.1303">
        <ele>612.98</ele>
        <time>2023-07-01T12:06:57Z</time>
      </trkpt>
      <trkpt lat="45.42916" lon="4.13055">
        <ele>616.82</ele>
        <time>2023-07-01T12:07:14Z</time>
      </trkpt>
      <trkpt lat="45.42896" lon="4.13042">
        <ele>618.75</ele>
        <time>2023-07-01T12:07:29Z</time>
      </trkpt>
      <trkpt lat="45.42871" lon="4.13018">
        <ele>620.67</ele>
        <time>2023-07-01T12:07:49Z</time>
      </trkpt>
      <trkpt lat="45.42844" lon="4.13012">
        <ele>625.47</ele>
        <time>2023-07-01T12:08:07Z</time>
      </trkpt>
      <trkpt lat="45.42811" lon="4.13">
        <ele>630.76</ele>
        <time>2023-07-01T12:08:29Z</time>
      </trkpt>
      <trkpt lat="45.42778" lon="4.12996">
        <ele>636.05</ele>
        <time>2023-07-01T12:08:51Z</time>
      </trkpt>
      <trkpt lat="45.42756" lon="4.12993">
        <ele>637.97</ele>
        <time>2023-07-01T12:09:07Z</time>
      </trkpt>
      <trkpt lat="45.42733" lon="4.12986">
        <ele>638.45</ele>
        <time>2023-07-01T12:09:23Z</time>
      </trkpt>
      <trkpt lat="45.42732" lon="4.12985">
        <ele>637.97</ele>
        <time>2023-07-01T12:09:37Z</time>
      </trkpt>
      <trkpt lat="45.42732" lon="4.12982">
        <ele>636.53</ele>
        <time>2023-07-01T12:10:06Z</time>
      </trkpt>
      <trkpt lat="45.42732" lon="4.12985">
        <ele>634.61</ele>
        <time>2023-07-01T12:10:26Z</time>
      </trkpt>
      <trkpt lat="45.42731" lon="4.12985">
        <ele>636.53</ele>
        <time>2023-07-01T12:11:00Z</time>
      </trkpt>
      <trkpt lat="45.42729" lon="4.12983">
        <ele>635.57</ele>
        <time>2023-07-01T12:11:22Z</time>
      </trkpt>
      <trkpt lat="45.42728" lon="4.12987">
        <ele>639.41</ele>
        <time>2023-07-01T12:11:39Z</time>
      </trkpt>
      <trkpt lat="45.42727" lon="4.12985">
        <ele>638.45</ele>
        <time>2023-07-01T12:12:04Z</time>
      </trkpt>
      <trkpt lat="45.42728" lon="4.12986">
        <ele>638.93</ele>
        <time>2023-07-01T12:12:26Z</time>
      </trkpt>
      <trkpt lat="45.42729" lon="4.12984">
        <ele>639.41</ele>
        <time>2023-07-01T12:12:54Z</time>
      </trkpt>
      <trkpt lat="45.4273" lon="4.12986">
        <ele>639.41</ele>
        <time>2023-07-01T12:13:13Z</time>
      </trkpt>
      <trkpt lat="45.42737" lon="4.12984">
        <ele>638.45</ele>
        <time>2023-07-01T12:13:46Z</time>
      </trkpt>
      <trkpt lat="45.42733" lon="4.12985">
        <ele>640.86</ele>
        <time>2023-07-01T12:14:10Z</time>
      </trkpt>
      <trkpt lat="45.42734" lon="4.12986">
        <ele>639.41</ele>
        <time>2023-07-01T12:14:40Z</time>
      </trkpt>
      <trkpt lat="45.4273" lon="4.12983">
        <ele>635.09</ele>
        <time>2023-07-01T12:15:14Z</time>
      </trkpt>
      <trkpt lat="45.42729" lon="4.12984">
        <ele>634.61</ele>
        <time>2023-07-01T12:15:36Z</time>
      </trkpt>
      <trkpt lat="45.4273" lon="4.1298">
        <ele>637.01</ele>
        <time>2023-07-01T12:16:08Z</time>
      </trkpt>
      <trkpt lat="45.42732" lon="4.12981">
        <ele>639.89</ele>
        <time>2023-07-01T12:16:44Z</time>
      </trkpt>
      <trkpt lat="45.4273" lon="4.12984">
        <ele>642.78</ele>
        <time>2023-07-01T12:17:15Z</time>
      </trkpt>
      <trkpt lat="45.42732" lon="4.12983">
        <ele>640.86</ele>
        <time>2023-07-01T12:17:47Z</time>
      </trkpt>
      <trkpt lat="45.42733" lon="4.12981">
        <ele>640.38</ele>
        <time>2023-07-01T12:18:16Z</time>
      </trkpt>
      <trkpt lat="45.42733" lon="4.12977">
        <ele>641.82</ele>
        <time>2023-07-01T12:18:48Z</time>
      </trkpt>
      <trkpt lat="45.42735" lon="4.12983">
        <ele>641.82</ele>
        <time>2023-07-01T12:19:16Z</time>
      </trkpt>
      <trkpt lat="45.42733" lon="4.1298">
        <ele>641.34</ele>
        <time>2023-07-01T12:19:36Z</time>
      </trkpt>
      <trkpt lat="45.42732" lon="4.12982">
        <ele>640.86</ele>
        <time>2023-07-01T12:20:09Z</time>
      </trkpt>
      <trkpt lat="45.4273" lon="4.1298">
        <ele>640.38</ele>
        <time>2023-07-01T12:20:32Z</time>
      </trkpt>
      <trkpt lat="45.42733" lon="4.12978">
        <ele>639.89</ele>
        <time>2023-07-01T12:21:01Z</time>
      </trkpt>
      <trkpt lat="45.42731" lon="4.1298">
        <ele>638.45</ele>
        <time>2023-07-01T12:21:31Z</time>
      </trkpt>
      <trkpt lat="45.4273" lon="4.12979">
        <ele>640.38</ele>
        <time>2023-07-01T12:22:06Z</time>
      </trkpt>
      <trkpt lat="45.42728" lon="4.12981">
        <ele>638.93</ele>
        <time>2023-07-01T12:22:32Z</time>
      </trkpt>
      <trkpt lat="45.42727" lon="4.12986">
        <ele>638.93</ele>
        <time>2023-07-01T12:22:59Z</time>
      </trkpt>
      <trkpt lat="45.42728" lon="4.12987">
        <ele>639.89</ele>
        <time>2023-07-01T12:23:36Z</time>
      </trkpt>
      <trkpt lat="45.42728" lon="4.1299">
        <ele>641.34</ele>
        <time>2023-07-01T12:24:12Z</time>
      </trkpt>
      <trkpt lat="45.42726" lon="4.12991">
        <ele>642.78</ele>
        <time>2023-07-01T12:24:42Z</time>
      </trkpt>
      <trkpt lat="45.42729" lon="4.12988">
        <ele>640.86</ele>
        <time>2023-07-01T12:25:08Z</time>
      </trkpt>
      <trkpt lat="45.42725" lon="4.12986">
        <ele>642.78</ele>
        <time>2023-07-01T12:25:35Z</time>
      </trkpt>
      <trkpt lat="45.42725" lon="4.12979">
        <ele>636.53</ele>
        <time>2023-07-01T12:26:04Z</time>
      </trkpt>
      <trkpt lat="45.42722" lon="4.12989">
        <ele>637.97</ele>
        <time>2023-07-01T12:26:34Z</time>
      </trkpt>
      <trkpt lat="45.42721" lon="4.12985">
        <ele>638.93</ele>
        <time>2023-07-01T12:26:48Z</time>
      </trkpt>
      <trkpt lat="45.42719" lon="4.12985">
        <ele>641.34</ele>
        <time>2023-07-01T12:27:05Z</time>
      </trkpt>
      <trkpt lat="45.42719" lon="4.12983">
        <ele>642.3</ele>
        <time>2023-07-01T12:27:26Z</time>
      </trkpt>
      <trkpt lat="45.42718" lon="4.12979">
        <ele>640.38</ele>
        <time>2023-07-01T12:27:51Z</time>
      </trkpt>
      <trkpt lat="45.4272" lon="4.12977">
        <ele>639.41</ele>
        <time>2023-07-01T12:28:20Z</time>
      </trkpt>
      <trkpt lat="45.42721" lon="4.12977">
        <ele>639.41</ele>
        <time>2023-07-01T12:28:38Z</time>
      </trkpt>
      <trkpt lat="45.42722" lon="4.12981">
        <ele>641.34</ele>
        <time>2023-07-01T12:28:59Z</time>
      </trkpt>
      <trkpt lat="45.4272" lon="4.12987">
        <ele>640.38</ele>
        <time>2023-07-01T12:29:10Z</time>
      </trkpt>
      <trkpt lat="45.42719" lon="4.12982">
        <ele>640.86</ele>
        <time>2023-07-01T12:29:24Z</time>
      </trkpt>
      <trkpt lat="45.42722" lon="4.12977">
        <ele>640.86</ele>
        <time>2023-07-01T12:29:40Z</time>
      </trkpt>
      <trkpt lat="45.42725" lon="4.12978">
        <ele>639.41</ele>
        <time>2023-07-01T12:30:07Z</time>
      </trkpt>
      <trkpt lat="45.42725" lon="4.12979">
        <ele>641.34</ele>
        <time>2023-07-01T12:30:41Z</time>
      </trkpt>
      <trkpt lat="45.42722" lon="4.12977">
        <ele>640.38</ele>
        <time>2023-07-01T12:31:00Z</time>
      </trkpt>
      <trkpt lat="45.42724" lon="4.12982">
        <ele>641.34</ele>
        <time>2023-07-01T12:31:13Z</time>
      </trkpt>
      <trkpt lat="45.42722" lon="4.1298">
        <ele>640.38</ele>
        <time>2023-07-01T12:31:42Z</time>
      </trkpt>
      <trkpt lat="45.42716" lon="4.12969">
        <ele>640.86</ele>
        <time>2023-07-01T12:32:12Z</time>
      </trkpt>
      <trkpt lat="45.42718" lon="4.12974">
        <ele>639.89</ele>
        <time>2023-07-01T12:32:36Z</time>
      </trkpt>
      <trkpt lat="45.42728" lon="4.12977">
        <ele>641.34</ele>
        <time>2023-07-01T12:32:54Z</time>
      </trkpt>
      <trkpt lat="45.42736" lon="4.1298">
        <ele>638.93</ele>
        <time>2023-07-01T12:33:08Z</time>
      </trkpt>
      <trkpt lat="45.4274" lon="4.12978">
        <ele>641.34</ele>
        <time>2023-07-01T12:33:25Z</time>
      </trkpt>
      <trkpt lat="45.42741" lon="4.1298">
        <ele>642.78</ele>
        <time>2023-07-01T12:33:39Z</time>
      </trkpt>
      <trkpt lat="45.42767" lon="4.12989">
        <ele>637.49</ele>
        <time>2023-07-01T12:33:57Z</time>
      </trkpt>
      <trkpt lat="45.42771" lon="4.12987">
        <ele>635.57</ele>
        <time>2023-07-01T12:34:01Z</time>
      </trkpt>
      <trkpt lat="45.42768" lon="4.12981">
        <ele>633.65</ele>
        <time>2023-07-01T12:34:06Z</time>
      </trkpt>
      <trkpt lat="45.42751" lon="4.12976">
        <ele>631.72</ele>
        <time>2023-07-01T12:34:23Z</time>
      </trkpt>
      <trkpt lat="45.42732" lon="4.12962">
        <ele>634.13</ele>
        <time>2023-07-01T12:34:38Z</time>
      </trkpt>
      <trkpt lat="45.42726" lon="4.12955">
        <ele>636.05</ele>
        <time>2023-07-01T12:34:56Z</time>
      </trkpt>
      <trkpt lat="45.42724" lon="4.12951">
        <ele>636.53</ele>
        <time>2023-07-01T12:35:19Z</time>
      </trkpt>
      <trkpt lat="45.42719" lon="4.12952">
        <ele>637.49</ele>
        <time>2023-07-01T12:35:40Z</time>
      </trkpt>
      <trkpt lat="45.427" lon="4.12939">
        <ele>643.26</ele>
        <time>2023-07-01T12:35:57Z</time>
      </trkpt>
      <trkpt lat="45.42698" lon="4.1293">
        <ele>644.22</ele>
        <time>2023-07-01T12:36:02Z</time>
      </trkpt>
      <trkpt lat="45.42709" lon="4.12898">
        <ele>646.14</ele>
        <time>2023-07-01T12:36:18Z</time>
      </trkpt>
      <trkpt lat="45.42722" lon="4.12865">
        <ele>636.53</ele>
        <time>2023-07-01T12:36:36Z</time>
      </trkpt>
      <trkpt lat="45.42732" lon="4.1284">
        <ele>628.84</ele>
        <time>2023-07-01T12:36:53Z</time>
      </trkpt>
      <trkpt lat="45.42743" lon="4.12815">
        <ele>621.63</ele>
        <time>2023-07-01T12:37:09Z</time>
      </trkpt>
      <trkpt lat="45.42751" lon="4.12788">
        <ele>614.9</ele>
        <time>2023-07-01T12:37:25Z</time>
      </trkpt>
      <trkpt lat="45.42749" lon="4.1278">
        <ele>616.34</ele>
        <time>2023-07-01T12:37:40Z</time>
      </trkpt>
      <trkpt lat="45.42749" lon="4.12765">
        <ele>624.03</ele>
        <time>2023-07-01T12:38:00Z</time>
      </trkpt>
      <trkpt lat="45.42759" lon="4.1274">
        <ele>628.84</ele>
        <time>2023-07-01T12:38:17Z</time>
      </trkpt>
      <trkpt lat="45.42775" lon="4.12715">
        <ele>627.88</ele>
        <time>2023-07-01T12:38:37Z</time>
      </trkpt>
      <trkpt lat="45.42798" lon="4.12698">
        <ele>625.96</ele>
        <time>2023-07-01T12:38:55Z</time>
      </trkpt>
      <trkpt lat="45.4282" lon="4.12675">
        <ele>623.07</ele>
        <time>2023-07-01T12:39:11Z</time>
      </trkpt>
      <trkpt lat="45.42837" lon="4.12645">
        <ele>619.23</ele>
        <time>2023-07-01T12:39:29Z</time>
      </trkpt>
      <trkpt lat="45.42851" lon="4.12615">
        <ele>619.71</ele>
        <time>2023-07-01T12:39:47Z</time>
      </trkpt>
      <trkpt lat="45.42864" lon="4.12586">
        <ele>621.15</ele>
        <time>2023-07-01T12:40:04Z</time>
      </trkpt>
      <trkpt lat="45.42879" lon="4.12546">
        <ele>620.19</ele>
        <time>2023-07-01T12:40:26Z</time>
      </trkpt>
      <trkpt lat="45.42886" lon="4.125">
        <ele>621.63</ele>
        <time>2023-07-01T12:40:47Z</time>
      </trkpt>
      <trkpt lat="45.42886" lon="4.12459">
        <ele>620.67</ele>
        <time>2023-07-01T12:41:08Z</time>
      </trkpt>
      <trkpt lat="45.42889" lon="4.12432">
        <ele>620.19</ele>
        <time>2023-07-01T12:41:24Z</time>
      </trkpt>
      <trkpt lat="45.42889" lon="4.12416">
        <ele>618.26</ele>
        <time>2023-07-01T12:41:33Z</time>
      </trkpt>
      <trkpt lat="45.42891" lon="4.12388">
        <ele>616.34</ele>
        <time>2023-07-01T12:41:47Z</time>
      </trkpt>
      <trkpt lat="45.42894" lon="4.1235">
        <ele>612.02</ele>
        <time>2023-07-01T12:42:06Z</time>
      </trkpt>
      <trkpt lat="45.42892" lon="4.1232">
        <ele>609.13</ele>
        <time>2023-07-01T12:42:22Z</time>
      </trkpt>
      <trkpt lat="45.42885" lon="4.12287">
        <ele>607.69</ele>
        <time>2023-07-01T12:42:41Z</time>
      </trkpt>
      <trkpt lat="45.42877" lon="4.12251">
        <ele>606.73</ele>
        <time>2023-07-01T12:43:00Z</time>
      </trkpt>
      <trkpt lat="45.42876" lon="4.12214">
        <ele>602.88</ele>
        <time>2023-07-01T12:43:19Z</time>
      </trkpt>
      <trkpt lat="45.42882" lon="4.12178">
        <ele>599.52</ele>
        <time>2023-07-01T12:43:37Z</time>
      </trkpt>
      <trkpt lat="45.42888" lon="4.12139">
        <ele>594.71</ele>
        <time>2023-07-01T12:43:55Z</time>
      </trkpt>
      <trkpt lat="45.42903" lon="4.12109">
        <ele>587.98</ele>
        <time>2023-07-01T12:44:15Z</time>
      </trkpt>
      <trkpt lat="45.42911" lon="4.121">
        <ele>587.98</ele>
        <time>2023-07-01T12:44:30Z</time>
      </trkpt>
      <trkpt lat="45.42914" lon="4.12093">
        <ele>594.23</ele>
        <time>2023-07-01T12:44:51Z</time>
      </trkpt>
      <trkpt lat="45.42919" lon="4.1209">
        <ele>593.75</ele>
        <time>2023-07-01T12:45:05Z</time>
      </trkpt>
      <trkpt lat="45.4294" lon="4.1208">
        <ele>593.75</ele>
        <time>2023-07-01T12:45:21Z</time>
      </trkpt>
      <trkpt lat="45.42949" lon="4.12075">
        <ele>592.31</ele>
        <time>2023-07-01T12:45:31Z</time>
      </trkpt>
      <trkpt lat="45.42954" lon="4.12061">
        <ele>591.35</ele>
        <time>2023-07-01T12:45:39Z</time>
      </trkpt>
      <trkpt lat="45.42963" lon="4.12024">
        <ele>589.43</ele>
        <time>2023-07-01T12:45:59Z</time>
      </trkpt>
      <trkpt lat="45.42969" lon="4.12003">
        <ele>587.98</ele>
        <time>2023-07-01T12:46:16Z</time>
      </trkpt>
      <trkpt lat="45.4297" lon="4.12002">
        <ele>587.98</ele>
        <time>2023-07-01T12:46:17Z</time>
      </trkpt>
      <trkpt lat="45.42971" lon="4.1199">
        <ele>588.46</ele>
        <time>2023-07-01T12:46:34Z</time>
      </trkpt>
      <trkpt lat="45.42977" lon="4.11966">
        <ele>586.54</ele>
        <time>2023-07-01T12:46:51Z</time>
      </trkpt>
      <trkpt lat="45.42981" lon="4.11964">
        <ele>587.02</ele>
        <time>2023-07-01T12:46:54Z</time>
      </trkpt>
      <trkpt lat="45.43014" lon="4.11948">
        <ele>591.35</ele>
        <time>2023-07-01T12:47:12Z</time>
      </trkpt>
      <trkpt lat="45.43041" lon="4.11951">
        <ele>589.91</ele>
        <time>2023-07-01T12:47:28Z</time>
      </trkpt>
      <trkpt lat="45.43064" lon="4.11974">
        <ele>586.54</ele>
        <time>2023-07-01T12:47:45Z</time>
      </trkpt>
      <trkpt lat="45.43092" lon="4.11998">
        <ele>586.06</ele>
        <time>2023-07-01T12:48:06Z</time>
      </trkpt>
      <trkpt lat="45.43118" lon="4.12011">
        <ele>587.02</ele>
        <time>2023-07-01T12:48:23Z</time>
      </trkpt>
      <trkpt lat="45.43142" lon="4.12029">
        <ele>587.5</ele>
        <time>2023-07-01T12:48:39Z</time>
      </trkpt>
      <trkpt lat="45.43163" lon="4.12056">
        <ele>586.54</ele>
        <time>2023-07-01T12:48:55Z</time>
      </trkpt>
      <trkpt lat="45.43175" lon="4.12071">
        <ele>587.02</ele>
        <time>2023-07-01T12:49:06Z</time>
      </trkpt>
      <trkpt lat="45.43202" lon="4.12084">
        <ele>591.35</ele>
        <time>2023-07-01T12:49:23Z</time>
      </trkpt>
      <trkpt lat="45.4323" lon="4.12101">
        <ele>595.67</ele>
        <time>2023-07-01T12:49:40Z</time>
      </trkpt>
      <trkpt lat="45.43243" lon="4.12119">
        <ele>599.52</ele>
        <time>2023-07-01T12:49:54Z</time>
      </trkpt>
      <trkpt lat="45.43236" lon="4.12139">
        <ele>602.4</ele>
        <time>2023-07-01T12:50:02Z</time>
      </trkpt>
      <trkpt lat="45.43232" lon="4.12154">
        <ele>603.36</ele>
        <time>2023-07-01T12:50:09Z</time>
      </trkpt>
      <trkpt lat="45.43234" lon="4.12195">
        <ele>604.33</ele>
        <time>2023-07-01T12:50:29Z</time>
      </trkpt>
      <trkpt lat="45.43227" lon="4.12228">
        <ele>603.36</ele>
        <time>2023-07-01T12:50:45Z</time>
      </trkpt>
      <trkpt lat="45.43229" lon="4.12244">
        <ele>603.85</ele>
        <time>2023-07-01T12:50:57Z</time>
      </trkpt>
      <trkpt lat="45.43236" lon="4.1228">
        <ele>604.33</ele>
        <time>2023-07-01T12:51:17Z</time>
      </trkpt>
      <trkpt lat="45.43247" lon="4.12313">
        <ele>600.96</ele>
        <time>2023-07-01T12:51:33Z</time>
      </trkpt>
      <trkpt lat="45.43262" lon="4.12347">
        <ele>599.52</ele>
        <time>2023-07-01T12:51:50Z</time>
      </trkpt>
      <trkpt lat="45.4327" lon="4.12371">
        <ele>597.12</ele>
        <time>2023-07-01T12:52:01Z</time>
      </trkpt>
      <trkpt lat="45.4328" lon="4.12406">
        <ele>594.23</ele>
        <time>2023-07-01T12:52:19Z</time>
      </trkpt>
      <trkpt lat="45.43293" lon="4.12429">
        <ele>595.19</ele>
        <time>2023-07-01T12:52:35Z</time>
      </trkpt>
      <trkpt lat="45.43314" lon="4.12466">
        <ele>596.64</ele>
        <time>2023-07-01T12:52:55Z</time>
      </trkpt>
      <trkpt lat="45.43331" lon="4.12493">
        <ele>598.08</ele>
        <time>2023-07-01T12:53:12Z</time>
      </trkpt>
      <trkpt lat="45.4334" lon="4.12518">
        <ele>597.12</ele>
        <time>2023-07-01T12:53:25Z</time>
      </trkpt>
      <trkpt lat="45.43344" lon="4.12556">
        <ele>599.04</ele>
        <time>2023-07-01T12:53:41Z</time>
      </trkpt>
      <trkpt lat="45.43341" lon="4.126">
        <ele>596.15</ele>
        <time>2023-07-01T12:53:57Z</time>
      </trkpt>
      <trkpt lat="45.43338" lon="4.12637">
        <ele>593.75</ele>
        <time>2023-07-01T12:54:13Z</time>
      </trkpt>
      <trkpt lat="45.43344" lon="4.12643">
        <ele>594.71</ele>
        <time>2023-07-01T12:54:19Z</time>
      </trkpt>
      <trkpt lat="45.43346" lon="4.12645">
        <ele>594.71</ele>
        <time>2023-07-01T12:54:20Z</time>
      </trkpt>
      <trkpt lat="45.43373" lon="4.1265">
        <ele>597.12</ele>
        <time>2023-07-01T12:54:36Z</time>
      </trkpt>
      <trkpt lat="45.43403" lon="4.12656">
        <ele>601.44</ele>
        <time>2023-07-01T12:54:56Z</time>
      </trkpt>
      <trkpt lat="45.4343" lon="4.12661">
        <ele>605.29</ele>
        <time>2023-07-01T12:55:15Z</time>
      </trkpt>
      <trkpt lat="45.43455" lon="4.12671">
        <ele>607.21</ele>
        <time>2023-07-01T12:55:33Z</time>
      </trkpt>
      <trkpt lat="45.43456" lon="4.12649">
        <ele>611.06</ele>
        <time>2023-07-01T12:55:46Z</time>
      </trkpt>
      <trkpt lat="45.43446" lon="4.12605">
        <ele>614.42</ele>
        <time>2023-07-01T12:56:09Z</time>
      </trkpt>
      <trkpt lat="45.43445" lon="4.12567">
        <ele>615.38</ele>
        <time>2023-07-01T12:56:26Z</time>
      </trkpt>
      <trkpt lat="45.43454" lon="4.12543">
        <ele>615.86</ele>
        <time>2023-07-01T12:56:39Z</time>
      </trkpt>
      <trkpt lat="45.43476" lon="4.12517">
        <ele>615.38</ele>
        <time>2023-07-01T12:56:57Z</time>
      </trkpt>
      <trkpt lat="45.43502" lon="4.12499">
        <ele>619.71</ele>
        <time>2023-07-01T12:57:15Z</time>
      </trkpt>
      <trkpt lat="45.43526" lon="4.12477">
        <ele>623.55</ele>
        <time>2023-07-01T12:57:35Z</time>
      </trkpt>
      <trkpt lat="45.43531" lon="4.12438">
        <ele>624.03</ele>
        <time>2023-07-01T12:57:53Z</time>
      </trkpt>
      <trkpt lat="45.43532" lon="4.12401">
        <ele>625.47</ele>
        <time>2023-07-01T12:58:10Z</time>
      </trkpt>
      <trkpt lat="45.43539" lon="4.12354">
        <ele>625.96</ele>
        <time>2023-07-01T12:58:32Z</time>
      </trkpt>
      <trkpt lat="45.43561" lon="4.12328">
        <ele>626.44</ele>
        <time>2023-07-01T12:58:52Z</time>
      </trkpt>
      <trkpt lat="45.43587" lon="4.12305">
        <ele>627.88</ele>
        <time>2023-07-01T12:59:12Z</time>
      </trkpt>
      <trkpt lat="45.43615" lon="4.12282">
        <ele>627.4</ele>
        <time>2023-07-01T12:59:34Z</time>
      </trkpt>
      <trkpt lat="45.43643" lon="4.1226">
        <ele>626.44</ele>
        <time>2023-07-01T12:59:55Z</time>
      </trkpt>
      <trkpt lat="45.43666" lon="4.1224">
        <ele>624.51</ele>
        <time>2023-07-01T13:00:13Z</time>
      </trkpt>
      <trkpt lat="45.43696" lon="4.12226">
        <ele>622.59</ele>
        <time>2023-07-01T13:00:34Z</time>
      </trkpt>
      <trkpt lat="45.43727" lon="4.12222">
        <ele>621.63</ele>
        <time>2023-07-01T13:00:53Z</time>
      </trkpt>
      <trkpt lat="45.43757" lon="4.12215">
        <ele>621.63</ele>
        <time>2023-07-01T13:01:13Z</time>
      </trkpt>
      <trkpt lat="45.43788" lon="4.12207">
        <ele>620.67</ele>
        <time>2023-07-01T13:01:34Z</time>
      </trkpt>
      <trkpt lat="45.43822" lon="4.12207">
        <ele>619.23</ele>
        <time>2023-07-01T13:01:55Z</time>
      </trkpt>
      <trkpt lat="45.4385" lon="4.12189">
        <ele>619.71</ele>
        <time>2023-07-01T13:02:15Z</time>
      </trkpt>
      <trkpt lat="45.43877" lon="4.12167">
        <ele>624.03</ele>
        <time>2023-07-01T13:02:34Z</time>
      </trkpt>
      <trkpt lat="45.43901" lon="4.1215">
        <ele>625.96</ele>
        <time>2023-07-01T13:02:52Z</time>
      </trkpt>
      <trkpt lat="45.4393" lon="4.12124">
        <ele>628.84</ele>
        <time>2023-07-01T13:03:14Z</time>
      </trkpt>
      <trkpt lat="45.43957" lon="4.12096">
        <ele>631.24</ele>
        <time>2023-07-01T13:03:36Z</time>
      </trkpt>
      <trkpt lat="45.43986" lon="4.12085">
        <ele>633.17</ele>
        <time>2023-07-01T13:03:54Z</time>
      </trkpt>
      <trkpt lat="45.44015" lon="4.12084">
        <ele>635.09</ele>
        <time>2023-07-01T13:04:15Z</time>
      </trkpt>
      <trkpt lat="45.44015" lon="4.12082">
        <ele>635.09</ele>
        <time>2023-07-01T13:04:17Z</time>
      </trkpt>
      <trkpt lat="45.44034" lon="4.12056">
        <ele>635.57</ele>
        <time>2023-07-01T13:04:34Z</time>
      </trkpt>
      <trkpt lat="45.44056" lon="4.12025">
        <ele>637.49</ele>
        <time>2023-07-01T13:04:54Z</time>
      </trkpt>
      <trkpt lat="45.44077" lon="4.11997">
        <ele>638.45</ele>
        <time>2023-07-01T13:05:13Z</time>
      </trkpt>
      <trkpt lat="45.44095" lon="4.11964">
        <ele>640.38</ele>
        <time>2023-07-01T13:05:33Z</time>
      </trkpt>
      <trkpt lat="45.44107" lon="4.11918">
        <ele>644.22</ele>
        <time>2023-07-01T13:05:55Z</time>
      </trkpt>
      <trkpt lat="45.44128" lon="4.11888">
        <ele>645.66</ele>
        <time>2023-07-01T13:06:15Z</time>
      </trkpt>
      <trkpt lat="45.44134" lon="4.11846">
        <ele>648.07</ele>
        <time>2023-07-01T13:06:36Z</time>
      </trkpt>
      <trkpt lat="45.44139" lon="4.11832">
        <ele>648.55</ele>
        <time>2023-07-01T13:06:47Z</time>
      </trkpt>
      <trkpt lat="45.4414" lon="4.11833">
        <ele>648.55</ele>
        <time>2023-07-01T13:06:48Z</time>
      </trkpt>
      <trkpt lat="45.44167" lon="4.11862">
        <ele>650.47</ele>
        <time>2023-07-01T13:07:09Z</time>
      </trkpt>
      <trkpt lat="45.44168" lon="4.11863">
        <ele>650.47</ele>
        <time>2023-07-01T13:07:10Z</time>
      </trkpt>
      <trkpt lat="45.44169" lon="4.11864">
        <ele>650.47</ele>
        <time>2023-07-01T13:07:11Z</time>
      </trkpt>
      <trkpt lat="45.4419" lon="4.1185">
        <ele>650.47</ele>
        <time>2023-07-01T13:07:29Z</time>
      </trkpt>
      <trkpt lat="45.44214" lon="4.11838">
        <ele>649.99</ele>
        <time>2023-07-01T13:07:46Z</time>
      </trkpt>
      <trkpt lat="45.44237" lon="4.11828">
        <ele>650.47</ele>
        <time>2023-07-01T13:08:03Z</time>
      </trkpt>
      <trkpt lat="45.44239" lon="4.11825">
        <ele>650.47</ele>
        <time>2023-07-01T13:08:09Z</time>
      </trkpt>
      <trkpt lat="45.4424" lon="4.11823">
        <ele>650.95</ele>
        <time>2023-07-01T13:08:10Z</time>
      </trkpt>
      <trkpt lat="45.4424" lon="4.11821">
        <ele>650.95</ele>
        <time>2023-07-01T13:08:11Z</time>
      </trkpt>
      <trkpt lat="45.44239" lon="4.11787">
        <ele>652.87</ele>
        <time>2023-07-01T13:08:26Z</time>
      </trkpt>
      <trkpt lat="45.44237" lon="4.11743">
        <ele>654.8</ele>
        <time>2023-07-01T13:08:46Z</time>
      </trkpt>
      <trkpt lat="45.44241" lon="4.11694">
        <ele>655.76</ele>
        <time>2023-07-01T13:09:09Z</time>
      </trkpt>
      <trkpt lat="45.44251" lon="4.11653">
        <ele>655.76</ele>
        <time>2023-07-01T13:09:30Z</time>
      </trkpt>
      <trkpt lat="45.44254" lon="4.11623">
        <ele>656.24</ele>
        <time>2023-07-01T13:09:44Z</time>
      </trkpt>
      <trkpt lat="45.44271" lon="4.11589">
        <ele>657.2</ele>
        <time>2023-07-01T13:10:02Z</time>
      </trkpt>
      <trkpt lat="45.44287" lon="4.11545">
        <ele>659.6</ele>
        <time>2023-07-01T13:10:25Z</time>
      </trkpt>
      <trkpt lat="45.44295" lon="4.11517">
        <ele>662.49</ele>
        <time>2023-07-01T13:10:43Z</time>
      </trkpt>
      <trkpt lat="45.44298" lon="4.11484">
        <ele>664.41</ele>
        <time>2023-07-01T13:11:00Z</time>
      </trkpt>
      <trkpt lat="45.44297" lon="4.11435">
        <ele>664.41</ele>
        <time>2023-07-01T13:11:22Z</time>
      </trkpt>
      <trkpt lat="45.443" lon="4.11423">
        <ele>663.93</ele>
        <time>2023-07-01T13:11:29Z</time>
      </trkpt>
      <trkpt lat="45.44314" lon="4.11412">
        <ele>662.49</ele>
        <time>2023-07-01T13:11:44Z</time>
      </trkpt>
      <trkpt lat="45.44325" lon="4.11411">
        <ele>662.49</ele>
        <time>2023-07-01T13:11:52Z</time>
      </trkpt>
      <trkpt lat="45.44335" lon="4.11404">
        <ele>661.04</ele>
        <time>2023-07-01T13:11:58Z</time>
      </trkpt>
      <trkpt lat="45.44336" lon="4.11402">
        <ele>660.56</ele>
        <time>2023-07-01T13:11:59Z</time>
      </trkpt>
      <trkpt lat="45.44353" lon="4.11378">
        <ele>657.68</ele>
        <time>2023-07-01T13:12:14Z</time>
      </trkpt>
      <trkpt lat="45.44374" lon="4.11359">
        <ele>659.6</ele>
        <time>2023-07-01T13:12:33Z</time>
      </trkpt>
      <trkpt lat="45.444" lon="4.11364">
        <ele>662.01</ele>
        <time>2023-07-01T13:12:51Z</time>
      </trkpt>
      <trkpt lat="45.44431" lon="4.11349">
        <ele>663.45</ele>
        <time>2023-07-01T13:13:12Z</time>
      </trkpt>
      <trkpt lat="45.44463" lon="4.11353">
        <ele>663.45</ele>
        <time>2023-07-01T13:13:34Z</time>
      </trkpt>
      <trkpt lat="45.4449" lon="4.11347">
        <ele>665.85</ele>
        <time>2023-07-01T13:13:53Z</time>
      </trkpt>
      <trkpt lat="45.44497" lon="4.11344">
        <ele>666.81</ele>
        <time>2023-07-01T13:13:58Z</time>
      </trkpt>
      <trkpt lat="45.44498" lon="4.11344">
        <ele>667.29</ele>
        <time>2023-07-01T13:13:59Z</time>
      </trkpt>
      <trkpt lat="45.445" lon="4.11344">
        <ele>667.29</ele>
        <time>2023-07-01T13:14:03Z</time>
      </trkpt>
      <trkpt lat="45.44501" lon="4.11342">
        <ele>667.29</ele>
        <time>2023-07-01T13:14:04Z</time>
      </trkpt>
      <trkpt lat="45.44524" lon="4.11319">
        <ele>667.29</ele>
        <time>2023-07-01T13:14:22Z</time>
      </trkpt>
      <trkpt lat="45.44549" lon="4.113">
        <ele>667.77</ele>
        <time>2023-07-01T13:14:41Z</time>
      </trkpt>
      <trkpt lat="45.44575" lon="4.1129">
        <ele>664.89</ele>
        <time>2023-07-01T13:14:57Z</time>
      </trkpt>
      <trkpt lat="45.44603" lon="4.1128">
        <ele>662.01</ele>
        <time>2023-07-01T13:15:16Z</time>
      </trkpt>
      <trkpt lat="45.44632" lon="4.11255">
        <ele>660.08</ele>
        <time>2023-07-01T13:15:38Z</time>
      </trkpt>
      <trkpt lat="45.44657" lon="4.11231">
        <ele>659.6</ele>
        <time>2023-07-01T13:15:57Z</time>
      </trkpt>
      <trkpt lat="45.44681" lon="4.11208">
        <ele>658.16</ele>
        <time>2023-07-01T13:16:16Z</time>
      </trkpt>
      <trkpt lat="45.44705" lon="4.11181">
        <ele>657.68</ele>
        <time>2023-07-01T13:16:35Z</time>
      </trkpt>
      <trkpt lat="45.44717" lon="4.11167">
        <ele>656.72</ele>
        <time>2023-07-01T13:16:47Z</time>
      </trkpt>
      <trkpt lat="45.44717" lon="4.11164">
        <ele>656.72</ele>
        <time>2023-07-01T13:16:48Z</time>
      </trkpt>
      <trkpt lat="45.44717" lon="4.11162">
        <ele>656.72</ele>
        <time>2023-07-01T13:16:49Z</time>
      </trkpt>
      <trkpt lat="45.44717" lon="4.1116">
        <ele>656.72</ele>
        <time>2023-07-01T13:16:50Z</time>
      </trkpt>
      <trkpt lat="45.44716" lon="4.11158">
        <ele>656.72</ele>
        <time>2023-07-01T13:16:51Z</time>
      </trkpt>
      <trkpt lat="45.44715" lon="4.11156">
        <ele>657.2</ele>
        <time>2023-07-01T13:16:52Z</time>
      </trkpt>
      <trkpt lat="45.44697" lon="4.11121">
        <ele>658.16</ele>
        <time>2023-07-01T13:17:09Z</time>
      </trkpt>
      <trkpt lat="45.44675" lon="4.11072">
        <ele>661.04</ele>
        <time>2023-07-01T13:17:36Z</time>
      </trkpt>
      <trkpt lat="45.44653" lon="4.11025">
        <ele>663.45</ele>
        <time>2023-07-01T13:18:00Z</time>
      </trkpt>
      <trkpt lat="45.44634" lon="4.10974">
        <ele>668.25</ele>
        <time>2023-07-01T13:18:27Z</time>
      </trkpt>
      <trkpt lat="45.44628" lon="4.10932">
        <ele>669.22</ele>
        <time>2023-07-01T13:18:49Z</time>
      </trkpt>
      <trkpt lat="45.4464" lon="4.10899">
        <ele>668.25</ele>
        <time>2023-07-01T13:19:06Z</time>
      </trkpt>
      <trkpt lat="45.44646" lon="4.10868">
        <ele>666.81</ele>
        <time>2023-07-01T13:19:25Z</time>
      </trkpt>
      <trkpt lat="45.44653" lon="4.10834">
        <ele>662.97</ele>
        <time>2023-07-01T13:19:44Z</time>
      </trkpt>
      <trkpt lat="45.44658" lon="4.10789">
        <ele>664.89</ele>
        <time>2023-07-01T13:20:02Z</time>
      </trkpt>
      <trkpt lat="45.44669" lon="4.1075">
        <ele>669.22</ele>
        <time>2023-07-01T13:20:22Z</time>
      </trkpt>
      <trkpt lat="45.44676" lon="4.1073">
        <ele>670.18</ele>
        <time>2023-07-01T13:20:30Z</time>
      </trkpt>
      <trkpt lat="45.4469" lon="4.10698">
        <ele>669.22</ele>
        <time>2023-07-01T13:20:47Z</time>
      </trkpt>
      <trkpt lat="45.44692" lon="4.10696">
        <ele>668.73</ele>
        <time>2023-07-01T13:20:48Z</time>
      </trkpt>
      <trkpt lat="45.44706" lon="4.10661">
        <ele>665.85</ele>
        <time>2023-07-01T13:21:04Z</time>
      </trkpt>
      <trkpt lat="45.44717" lon="4.10626">
        <ele>672.1</ele>
        <time>2023-07-01T13:21:20Z</time>
      </trkpt>
      <trkpt lat="45.44734" lon="4.10593">
        <ele>677.87</ele>
        <time>2023-07-01T13:21:38Z</time>
      </trkpt>
      <trkpt lat="45.44753" lon="4.10565">
        <ele>677.39</ele>
        <time>2023-07-01T13:21:55Z</time>
      </trkpt>
      <trkpt lat="45.44785" lon="4.10541">
        <ele>682.19</ele>
        <time>2023-07-01T13:22:17Z</time>
      </trkpt>
      <trkpt lat="45.44806" lon="4.10518">
        <ele>684.12</ele>
        <time>2023-07-01T13:22:36Z</time>
      </trkpt>
      <trkpt lat="45.4483" lon="4.10505">
        <ele>684.12</ele>
        <time>2023-07-01T13:22:54Z</time>
      </trkpt>
      <trkpt lat="45.44853" lon="4.10483">
        <ele>685.08</ele>
        <time>2023-07-01T13:23:13Z</time>
      </trkpt>
      <trkpt lat="45.44866" lon="4.10454">
        <ele>684.12</ele>
        <time>2023-07-01T13:23:32Z</time>
      </trkpt>
      <trkpt lat="45.44874" lon="4.10413">
        <ele>682.19</ele>
        <time>2023-07-01T13:23:50Z</time>
      </trkpt>
      <trkpt lat="45.44884" lon="4.10377">
        <ele>680.75</ele>
        <time>2023-07-01T13:24:08Z</time>
      </trkpt>
      <trkpt lat="45.44904" lon="4.10356">
        <ele>679.79</ele>
        <time>2023-07-01T13:24:24Z</time>
      </trkpt>
      <trkpt lat="45.44933" lon="4.10328">
        <ele>681.23</ele>
        <time>2023-07-01T13:24:46Z</time>
      </trkpt>
      <trkpt lat="45.44951" lon="4.103">
        <ele>680.27</ele>
        <time>2023-07-01T13:25:04Z</time>
      </trkpt>
      <trkpt lat="45.44962" lon="4.1026">
        <ele>676.42</ele>
        <time>2023-07-01T13:25:27Z</time>
      </trkpt>
      <trkpt lat="45.44961" lon="4.10231">
        <ele>675.46</ele>
        <time>2023-07-01T13:25:43Z</time>
      </trkpt>
      <trkpt lat="45.44946" lon="4.10198">
        <ele>671.62</ele>
        <time>2023-07-01T13:26:01Z</time>
      </trkpt>
      <trkpt lat="45.44927" lon="4.10171">
        <ele>669.7</ele>
        <time>2023-07-01T13:26:19Z</time>
      </trkpt>
      <trkpt lat="45.44906" lon="4.10144">
        <ele>666.81</ele>
        <time>2023-07-01T13:26:37Z</time>
      </trkpt>
      <trkpt lat="45.44886" lon="4.1012">
        <ele>665.37</ele>
        <time>2023-07-01T13:26:54Z</time>
      </trkpt>
      <trkpt lat="45.44869" lon="4.10094">
        <ele>665.85</ele>
        <time>2023-07-01T13:27:09Z</time>
      </trkpt>
      <trkpt lat="45.44867" lon="4.10075">
        <ele>665.37</ele>
        <time>2023-07-01T13:27:19Z</time>
      </trkpt>
      <trkpt lat="45.44867" lon="4.10072">
        <ele>665.37</ele>
        <time>2023-07-01T13:27:20Z</time>
      </trkpt>
      <trkpt lat="45.44874" lon="4.10044">
        <ele>665.37</ele>
        <time>2023-07-01T13:27:34Z</time>
      </trkpt>
      <trkpt lat="45.44888" lon="4.10037">
        <ele>666.33</ele>
        <time>2023-07-01T13:27:48Z</time>
      </trkpt>
      <trkpt lat="45.44919" lon="4.10035">
        <ele>667.29</ele>
        <time>2023-07-01T13:28:10Z</time>
      </trkpt>
      <trkpt lat="45.4495" lon="4.10026">
        <ele>668.73</ele>
        <time>2023-07-01T13:28:31Z</time>
      </trkpt>
      <trkpt lat="45.44971" lon="4.10023">
        <ele>669.22</ele>
        <time>2023-07-01T13:28:46Z</time>
      </trkpt>
      <trkpt lat="45.44972" lon="4.10022">
        <ele>669.7</ele>
        <time>2023-07-01T13:28:47Z</time>
      </trkpt>
      <trkpt lat="45.44974" lon="4.10021">
        <ele>670.18</ele>
        <time>2023-07-01T13:28:48Z</time>
      </trkpt>
      <trkpt lat="45.45009" lon="4.10006">
        <ele>671.14</ele>
        <time>2023-07-01T13:29:11Z</time>
      </trkpt>
      <trkpt lat="45.45038" lon="4.10003">
        <ele>669.7</ele>
        <time>2023-07-01T13:29:30Z</time>
      </trkpt>
      <trkpt lat="45.45044" lon="4.10004">
        <ele>669.7</ele>
        <time>2023-07-01T13:29:34Z</time>
      </trkpt>
      <trkpt lat="45.45045" lon="4.10003">
        <ele>669.7</ele>
        <time>2023-07-01T13:29:35Z</time>
      </trkpt>
      <trkpt lat="45.45072" lon="4.09994">
        <ele>672.58</ele>
        <time>2023-07-01T13:29:56Z</time>
      </trkpt>
      <trkpt lat="45.45083" lon="4.09998">
        <ele>672.58</ele>
        <time>2023-07-01T13:30:05Z</time>
      </trkpt>
      <trkpt lat="45.45103" lon="4.09993">
        <ele>671.62</ele>
        <time>2023-07-01T13:30:19Z</time>
      </trkpt>
      <trkpt lat="45.45121" lon="4.10011">
        <ele>666.81</ele>
        <time>2023-07-01T13:30:35Z</time>
      </trkpt>
      <trkpt lat="45.45123" lon="4.10011">
        <ele>667.77</ele>
        <time>2023-07-01T13:30:52Z</time>
      </trkpt>
      <trkpt lat="45.45128" lon="4.10009">
        <ele>667.29</ele>
        <time>2023-07-01T13:30:59Z</time>
      </trkpt>
      <trkpt lat="45.45141" lon="4.09983">
        <ele>662.97</ele>
        <time>2023-07-01T13:31:15Z</time>
      </trkpt>
      <trkpt lat="45.45142" lon="4.09954">
        <ele>661.52</ele>
        <time>2023-07-01T13:31:32Z</time>
      </trkpt>
      <trkpt lat="45.45132" lon="4.09917">
        <ele>664.41</ele>
        <time>2023-07-01T13:31:53Z</time>
      </trkpt>
      <trkpt lat="45.45132" lon="4.099">
        <ele>664.89</ele>
        <time>2023-07-01T13:32:04Z</time>
      </trkpt>
      <trkpt lat="45.45121" lon="4.09854">
        <ele>663.93</ele>
        <time>2023-07-01T13:32:25Z</time>
      </trkpt>
      <trkpt lat="45.45108" lon="4.09809">
        <ele>666.33</ele>
        <time>2023-07-01T13:32:47Z</time>
      </trkpt>
      <trkpt lat="45.45092" lon="4.09769">
        <ele>667.29</ele>
        <time>2023-07-01T13:33:08Z</time>
      </trkpt>
      <trkpt lat="45.45073" lon="4.09736">
        <ele>664.41</ele>
        <time>2023-07-01T13:33:27Z</time>
      </trkpt>
      <trkpt lat="45.45074" lon="4.09696">
        <ele>662.01</ele>
        <time>2023-07-01T13:33:46Z</time>
      </trkpt>
      <trkpt lat="45.45089" lon="4.09667">
        <ele>659.6</ele>
        <time>2023-07-01T13:34:02Z</time>
      </trkpt>
      <trkpt lat="45.45099" lon="4.0963">
        <ele>655.76</ele>
        <time>2023-07-01T13:34:19Z</time>
      </trkpt>
      <trkpt lat="45.45096" lon="4.0959">
        <ele>655.28</ele>
        <time>2023-07-01T13:34:36Z</time>
      </trkpt>
      <trkpt lat="45.45103" lon="4.09557">
        <ele>656.72</ele>
        <time>2023-07-01T13:34:54Z</time>
      </trkpt>
      <trkpt lat="45.4511" lon="4.09525">
        <ele>663.45</ele>
        <time>2023-07-01T13:35:09Z</time>
      </trkpt>
      <trkpt lat="45.4511" lon="4.09522">
        <ele>663.45</ele>
        <time>2023-07-01T13:35:10Z</time>
      </trkpt>
      <trkpt lat="45.4511" lon="4.09492">
        <ele>658.64</ele>
        <time>2023-07-01T13:35:26Z</time>
      </trkpt>
      <trkpt lat="45.45105" lon="4.09437">
        <ele>652.87</ele>
        <time>2023-07-01T13:35:50Z</time>
      </trkpt>
      <trkpt lat="45.45103" lon="4.09417">
        <ele>652.87</ele>
        <time>2023-07-01T13:35:58Z</time>
      </trkpt>
      <trkpt lat="45.45103" lon="4.09414">
        <ele>653.35</ele>
        <time>2023-07-01T13:35:59Z</time>
      </trkpt>
      <trkpt lat="45.45101" lon="4.09381">
        <ele>649.99</ele>
        <time>2023-07-01T13:36:15Z</time>
      </trkpt>
      <trkpt lat="45.45096" lon="4.09348">
        <ele>641.82</ele>
        <time>2023-07-01T13:36:32Z</time>
      </trkpt>
      <trkpt lat="45.45094" lon="4.09327">
        <ele>632.2</ele>
        <time>2023-07-01T13:36:45Z</time>
      </trkpt>
      <trkpt lat="45.45094" lon="4.09325">
        <ele>631.72</ele>
        <time>2023-07-01T13:36:46Z</time>
      </trkpt>
      <trkpt lat="45.45093" lon="4.09323">
        <ele>631.24</ele>
        <time>2023-07-01T13:36:47Z</time>
      </trkpt>
      <trkpt lat="45.45092" lon="4.0932">
        <ele>630.76</ele>
        <time>2023-07-01T13:36:48Z</time>
      </trkpt>
      <trkpt lat="45.45092" lon="4.09318">
        <ele>629.8</ele>
        <time>2023-07-01T13:36:49Z</time>
      </trkpt>
      <trkpt lat="45.45071" lon="4.09284">
        <ele>623.55</ele>
        <time>2023-07-01T13:37:07Z</time>
      </trkpt>
      <trkpt lat="45.45056" lon="4.09259">
        <ele>627.4</ele>
        <time>2023-07-01T13:37:22Z</time>
      </trkpt>
      <trkpt lat="45.45071" lon="4.09225">
        <ele>627.4</ele>
        <time>2023-07-01T13:37:36Z</time>
      </trkpt>
      <trkpt lat="45.45085" lon="4.09184">
        <ele>628.36</ele>
        <time>2023-07-01T13:37:54Z</time>
      </trkpt>
      <trkpt lat="45.4509" lon="4.09136">
        <ele>636.53</ele>
        <time>2023-07-01T13:38:13Z</time>
      </trkpt>
      <trkpt lat="45.45106" lon="4.09086">
        <ele>641.82</ele>
        <time>2023-07-01T13:38:34Z</time>
      </trkpt>
      <trkpt lat="45.45123" lon="4.0905">
        <ele>647.1</ele>
        <time>2023-07-01T13:38:54Z</time>
      </trkpt>
      <trkpt lat="45.45136" lon="4.09011">
        <ele>651.43</ele>
        <time>2023-07-01T13:39:14Z</time>
      </trkpt>
      <trkpt lat="45.45137" lon="4.08955">
        <ele>657.68</ele>
        <time>2023-07-01T13:39:40Z</time>
      </trkpt>
      <trkpt lat="45.45146" lon="4.08926">
        <ele>672.1</ele>
        <time>2023-07-01T13:39:54Z</time>
      </trkpt>
      <trkpt lat="45.45158" lon="4.08925">
        <ele>676.91</ele>
        <time>2023-07-01T13:40:01Z</time>
      </trkpt>
      <trkpt lat="45.45181" lon="4.08921">
        <ele>687.48</ele>
        <time>2023-07-01T13:40:19Z</time>
      </trkpt>
      <trkpt lat="45.45184" lon="4.08923">
        <ele>690.84</ele>
        <time>2023-07-01T13:40:41Z</time>
      </trkpt>
      <trkpt lat="45.45184" lon="4.08923">
        <ele>690.84</ele>
        <time>2023-07-01T13:40:44Z</time>
      </trkpt>
      <trkpt lat="45.45192" lon="4.08921">
        <ele>691.81</ele>
        <time>2023-07-01T13:40:56Z</time>
      </trkpt>
      <trkpt lat="45.45194" lon="4.08908">
        <ele>692.29</ele>
        <time>2023-07-01T13:41:03Z</time>
      </trkpt>
      <trkpt lat="45.45198" lon="4.08863">
        <ele>692.77</ele>
        <time>2023-07-01T13:41:21Z</time>
      </trkpt>
      <trkpt lat="45.45197" lon="4.08821">
        <ele>695.65</ele>
        <time>2023-07-01T13:41:39Z</time>
      </trkpt>
      <trkpt lat="45.45201" lon="4.08774">
        <ele>695.65</ele>
        <time>2023-07-01T13:41:59Z</time>
      </trkpt>
      <trkpt lat="45.45204" lon="4.0873">
        <ele>693.25</ele>
        <time>2023-07-01T13:42:18Z</time>
      </trkpt>
      <trkpt lat="45.45204" lon="4.08687">
        <ele>692.29</ele>
        <time>2023-07-01T13:42:36Z</time>
      </trkpt>
      <trkpt lat="45.45202" lon="4.08647">
        <ele>688.44</ele>
        <time>2023-07-01T13:42:55Z</time>
      </trkpt>
      <trkpt lat="45.45193" lon="4.08602">
        <ele>691.81</ele>
        <time>2023-07-01T13:43:18Z</time>
      </trkpt>
      <trkpt lat="45.45185" lon="4.08568">
        <ele>693.25</ele>
        <time>2023-07-01T13:43:37Z</time>
      </trkpt>
      <trkpt lat="45.45174" lon="4.08526">
        <ele>696.13</ele>
        <time>2023-07-01T13:43:54Z</time>
      </trkpt>
      <trkpt lat="45.45164" lon="4.08477">
        <ele>698.05</ele>
        <time>2023-07-01T13:44:15Z</time>
      </trkpt>
      <trkpt lat="45.45154" lon="4.08418">
        <ele>700.94</ele>
        <time>2023-07-01T13:44:39Z</time>
      </trkpt>
      <trkpt lat="45.45152" lon="4.08374">
        <ele>702.86</ele>
        <time>2023-07-01T13:44:57Z</time>
      </trkpt>
      <trkpt lat="45.45153" lon="4.0833">
        <ele>706.23</ele>
        <time>2023-07-01T13:45:16Z</time>
      </trkpt>
      <trkpt lat="45.45152" lon="4.08294">
        <ele>710.55</ele>
        <time>2023-07-01T13:45:33Z</time>
      </trkpt>
      <trkpt lat="45.45178" lon="4.08189">
        <ele>712.95</ele>
        <time>2023-07-01T13:46:14Z</time>
      </trkpt>
      <trkpt lat="45.452" lon="4.08148">
        <ele>719.68</ele>
        <time>2023-07-01T13:46:34Z</time>
      </trkpt>
      <trkpt lat="45.45207" lon="4.08113">
        <ele>711.99</ele>
        <time>2023-07-01T13:46:52Z</time>
      </trkpt>
      <trkpt lat="45.45219" lon="4.08077">
        <ele>704.78</ele>
        <time>2023-07-01T13:47:09Z</time>
      </trkpt>
      <trkpt lat="45.45231" lon="4.0804">
        <ele>705.75</ele>
        <time>2023-07-01T13:47:24Z</time>
      </trkpt>
      <trkpt lat="45.45253" lon="4.08016">
        <ele>709.11</ele>
        <time>2023-07-01T13:47:40Z</time>
      </trkpt>
      <trkpt lat="45.45277" lon="4.07987">
        <ele>712.95</ele>
        <time>2023-07-01T13:47:58Z</time>
      </trkpt>
      <trkpt lat="45.45302" lon="4.07962">
        <ele>712.95</ele>
        <time>2023-07-01T13:48:16Z</time>
      </trkpt>
      <trkpt lat="45.45331" lon="4.07931">
        <ele>712.95</ele>
        <time>2023-07-01T13:48:37Z</time>
      </trkpt>
      <trkpt lat="45.45352" lon="4.07915">
        <ele>712.95</ele>
        <time>2023-07-01T13:48:52Z</time>
      </trkpt>
      <trkpt lat="45.45378" lon="4.07904">
        <ele>712.95</ele>
        <time>2023-07-01T13:49:08Z</time>
      </trkpt>
      <trkpt lat="45.45408" lon="4.07892">
        <ele>712.95</ele>
        <time>2023-07-01T13:49:26Z</time>
      </trkpt>
      <trkpt lat="45.45444" lon="4.07889">
        <ele>713.44</ele>
        <time>2023-07-01T13:49:47Z</time>
      </trkpt>
      <trkpt lat="45.45475" lon="4.0789">
        <ele>714.88</ele>
        <time>2023-07-01T13:50:05Z</time>
      </trkpt>
      <trkpt lat="45.45505" lon="4.07895">
        <ele>715.36</ele>
        <time>2023-07-01T13:50:22Z</time>
      </trkpt>
      <trkpt lat="45.45537" lon="4.07905">
        <ele>715.84</ele>
        <time>2023-07-01T13:50:41Z</time>
      </trkpt>
      <trkpt lat="45.45568" lon="4.07924">
        <ele>716.32</ele>
        <time>2023-07-01T13:50:59Z</time>
      </trkpt>
      <trkpt lat="45.45592" lon="4.07943">
        <ele>713.92</ele>
        <time>2023-07-01T13:51:15Z</time>
      </trkpt>
      <trkpt lat="45.45615" lon="4.07967">
        <ele>713.92</ele>
        <time>2023-07-01T13:51:32Z</time>
      </trkpt>
      <trkpt lat="45.45639" lon="4.07995">
        <ele>713.44</ele>
        <time>2023-07-01T13:51:50Z</time>
      </trkpt>
      <trkpt lat="45.4566" lon="4.08025">
        <ele>714.4</ele>
        <time>2023-07-01T13:52:07Z</time>
      </trkpt>
      <trkpt lat="45.45679" lon="4.08062">
        <ele>715.36</ele>
        <time>2023-07-01T13:52:25Z</time>
      </trkpt>
      <trkpt lat="45.45695" lon="4.08091">
        <ele>715.84</ele>
        <time>2023-07-01T13:52:40Z</time>
      </trkpt>
      <trkpt lat="45.45715" lon="4.08122">
        <ele>714.88</ele>
        <time>2023-07-01T13:52:58Z</time>
      </trkpt>
      <trkpt lat="45.45735" lon="4.08155">
        <ele>715.36</ele>
        <time>2023-07-01T13:53:17Z</time>
      </trkpt>
      <trkpt lat="45.45757" lon="4.08188">
        <ele>714.4</ele>
        <time>2023-07-01T13:53:37Z</time>
      </trkpt>
      <trkpt lat="45.45782" lon="4.08211">
        <ele>711.51</ele>
        <time>2023-07-01T13:53:55Z</time>
      </trkpt>
      <trkpt lat="45.45804" lon="4.08229">
        <ele>710.07</ele>
        <time>2023-07-01T13:54:12Z</time>
      </trkpt>
      <trkpt lat="45.45829" lon="4.08247">
        <ele>709.59</ele>
        <time>2023-07-01T13:54:29Z</time>
      </trkpt>
      <trkpt lat="45.45853" lon="4.08261">
        <ele>710.07</ele>
        <time>2023-07-01T13:54:46Z</time>
      </trkpt>
      <trkpt lat="45.45882" lon="4.08271">
        <ele>709.11</ele>
        <time>2023-07-01T13:55:04Z</time>
      </trkpt>
      <trkpt lat="45.45915" lon="4.08277">
        <ele>715.84</ele>
        <time>2023-07-01T13:55:25Z</time>
      </trkpt>
      <trkpt lat="45.45939" lon="4.0828">
        <ele>722.09</ele>
        <time>2023-07-01T13:55:41Z</time>
      </trkpt>
      <trkpt lat="45.45966" lon="4.08281">
        <ele>724.49</ele>
        <time>2023-07-01T13:55:58Z</time>
      </trkpt>
      <trkpt lat="45.45991" lon="4.08268">
        <ele>725.45</ele>
        <time>2023-07-01T13:56:15Z</time>
      </trkpt>
      <trkpt lat="45.46027" lon="4.08263">
        <ele>729.3</ele>
        <time>2023-07-01T13:56:34Z</time>
      </trkpt>
      <trkpt lat="45.46059" lon="4.08255">
        <ele>729.78</ele>
        <time>2023-07-01T13:56:54Z</time>
      </trkpt>
      <trkpt lat="45.46085" lon="4.08239">
        <ele>731.7</ele>
        <time>2023-07-01T13:57:11Z</time>
      </trkpt>
      <trkpt lat="45.46111" lon="4.08226">
        <ele>732.18</ele>
        <time>2023-07-01T13:57:29Z</time>
      </trkpt>
      <trkpt lat="45.4614" lon="4.08209">
        <ele>732.66</ele>
        <time>2023-07-01T13:57:47Z</time>
      </trkpt>
      <trkpt lat="45.4617" lon="4.08198">
        <ele>731.22</ele>
        <time>2023-07-01T13:58:06Z</time>
      </trkpt>
      <trkpt lat="45.46199" lon="4.08181">
        <ele>733.62</ele>
        <time>2023-07-01T13:58:25Z</time>
      </trkpt>
      <trkpt lat="45.4623" lon="4.08164">
        <ele>733.62</ele>
        <time>2023-07-01T13:58:45Z</time>
      </trkpt>
      <trkpt lat="45.46254" lon="4.08147">
        <ele>734.1</ele>
        <time>2023-07-01T13:59:03Z</time>
      </trkpt>
      <trkpt lat="45.46269" lon="4.08141">
        <ele>734.1</ele>
        <time>2023-07-01T13:59:16Z</time>
      </trkpt>
      <trkpt lat="45.46269" lon="4.08143">
        <ele>734.1</ele>
        <time>2023-07-01T13:59:17Z</time>
      </trkpt>
      <trkpt lat="45.46275" lon="4.08155">
        <ele>734.1</ele>
        <time>2023-07-01T13:59:28Z</time>
      </trkpt>
      <trkpt lat="45.46276" lon="4.08158">
        <ele>734.1</ele>
        <time>2023-07-01T13:59:30Z</time>
      </trkpt>
      <trkpt lat="45.46278" lon="4.08161">
        <ele>734.1</ele>
        <time>2023-07-01T13:59:31Z</time>
      </trkpt>
      <trkpt lat="45.46278" lon="4.08163">
        <ele>734.1</ele>
        <time>2023-07-01T13:59:32Z</time>
      </trkpt>
      <trkpt lat="45.46279" lon="4.08165">
        <ele>734.1</ele>
        <time>2023-07-01T13:59:33Z</time>
      </trkpt>
      <trkpt lat="45.4628" lon="4.08171">
        <ele>733.62</ele>
        <time>2023-07-01T13:59:36Z</time>
      </trkpt>
      <trkpt lat="45.4628" lon="4.08176">
        <ele>733.14</ele>
        <time>2023-07-01T13:59:38Z</time>
      </trkpt>
      <trkpt lat="45.46277" lon="4.08209">
        <ele>728.82</ele>
        <time>2023-07-01T13:59:55Z</time>
      </trkpt>
      <trkpt lat="45.4628" lon="4.08233">
        <ele>726.89</ele>
        <time>2023-07-01T14:00:08Z</time>
      </trkpt>
      <trkpt lat="45.46293" lon="4.08265">
        <ele>721.13</ele>
        <time>2023-07-01T14:00:23Z</time>
      </trkpt>
      <trkpt lat="45.46302" lon="4.08306">
        <ele>718.24</ele>
        <time>2023-07-01T14:00:37Z</time>
      </trkpt>
      <trkpt lat="45.46291" lon="4.08347">
        <ele>717.28</ele>
        <time>2023-07-01T14:00:57Z</time>
      </trkpt>
      <trkpt lat="45.46288" lon="4.08398">
        <ele>716.32</ele>
        <time>2023-07-01T14:01:19Z</time>
      </trkpt>
      <trkpt lat="45.46282" lon="4.08441">
        <ele>715.36</ele>
        <time>2023-07-01T14:01:38Z</time>
      </trkpt>
      <trkpt lat="45.46273" lon="4.0849">
        <ele>711.51</ele>
        <time>2023-07-01T14:01:59Z</time>
      </trkpt>
      <trkpt lat="45.46269" lon="4.08536">
        <ele>709.11</ele>
        <time>2023-07-01T14:02:19Z</time>
      </trkpt>
      <trkpt lat="45.46264" lon="4.08581">
        <ele>704.78</ele>
        <time>2023-07-01T14:02:39Z</time>
      </trkpt>
      <trkpt lat="45.4624" lon="4.08607">
        <ele>698.53</ele>
        <time>2023-07-01T14:02:56Z</time>
      </trkpt>
      <trkpt lat="45.46233" lon="4.08643">
        <ele>696.61</ele>
        <time>2023-07-01T14:03:11Z</time>
      </trkpt>
      <trkpt lat="45.46222" lon="4.08692">
        <ele>694.21</ele>
        <time>2023-07-01T14:03:32Z</time>
      </trkpt>
      <trkpt lat="45.46213" lon="4.08725">
        <ele>692.29</ele>
        <time>2023-07-01T14:03:49Z</time>
      </trkpt>
      <trkpt lat="45.46214" lon="4.08746">
        <ele>691.33</ele>
        <time>2023-07-01T14:03:59Z</time>
      </trkpt>
      <trkpt lat="45.46214" lon="4.08778">
        <ele>687.96</ele>
        <time>2023-07-01T14:04:15Z</time>
      </trkpt>
      <trkpt lat="45.4621" lon="4.08814">
        <ele>679.31</ele>
        <time>2023-07-01T14:04:32Z</time>
      </trkpt>
      <trkpt lat="45.46212" lon="4.0882">
        <ele>677.87</ele>
        <time>2023-07-01T14:04:35Z</time>
      </trkpt>
      <trkpt lat="45.46239" lon="4.08846">
        <ele>673.06</ele>
        <time>2023-07-01T14:04:54Z</time>
      </trkpt>
      <trkpt lat="45.46254" lon="4.0885">
        <ele>672.1</ele>
        <time>2023-07-01T14:05:11Z</time>
      </trkpt>
      <trkpt lat="45.4627" lon="4.08865">
        <ele>671.62</ele>
        <time>2023-07-01T14:05:24Z</time>
      </trkpt>
      <trkpt lat="45.46291" lon="4.08888">
        <ele>670.18</ele>
        <time>2023-07-01T14:05:40Z</time>
      </trkpt>
      <trkpt lat="45.46315" lon="4.08912">
        <ele>666.33</ele>
        <time>2023-07-01T14:06:00Z</time>
      </trkpt>
      <trkpt lat="45.46333" lon="4.08936">
        <ele>670.18</ele>
        <time>2023-07-01T14:06:15Z</time>
      </trkpt>
      <trkpt lat="45.46335" lon="4.08936">
        <ele>670.18</ele>
        <time>2023-07-01T14:06:16Z</time>
      </trkpt>
      <trkpt lat="45.46356" lon="4.08929">
        <ele>665.85</ele>
        <time>2023-07-01T14:06:33Z</time>
      </trkpt>
      <trkpt lat="45.4638" lon="4.08928">
        <ele>661.52</ele>
        <time>2023-07-01T14:06:48Z</time>
      </trkpt>
      <trkpt lat="45.46405" lon="4.08922">
        <ele>653.83</ele>
        <time>2023-07-01T14:07:04Z</time>
      </trkpt>
      <trkpt lat="45.46414" lon="4.08905">
        <ele>649.99</ele>
        <time>2023-07-01T14:07:16Z</time>
      </trkpt>
      <trkpt lat="45.46413" lon="4.08902">
        <ele>649.99</ele>
        <time>2023-07-01T14:07:17Z</time>
      </trkpt>
      <trkpt lat="45.46413" lon="4.089">
        <ele>649.51</ele>
        <time>2023-07-01T14:07:18Z</time>
      </trkpt>
      <trkpt lat="45.46415" lon="4.08892">
        <ele>646.62</ele>
        <time>2023-07-01T14:07:24Z</time>
      </trkpt>
      <trkpt lat="45.46416" lon="4.0889">
        <ele>646.14</ele>
        <time>2023-07-01T14:07:25Z</time>
      </trkpt>
      <trkpt lat="45.46427" lon="4.08848">
        <ele>644.7</ele>
        <time>2023-07-01T14:07:42Z</time>
      </trkpt>
      <trkpt lat="45.4646" lon="4.08845">
        <ele>640.38</ele>
        <time>2023-07-01T14:08:01Z</time>
      </trkpt>
      <trkpt lat="45.46494" lon="4.08858">
        <ele>639.41</ele>
        <time>2023-07-01T14:08:22Z</time>
      </trkpt>
      <trkpt lat="45.46524" lon="4.08863">
        <ele>637.97</ele>
        <time>2023-07-01T14:08:39Z</time>
      </trkpt>
      <trkpt lat="45.4654" lon="4.08868">
        <ele>637.97</ele>
        <time>2023-07-01T14:08:52Z</time>
      </trkpt>
      <trkpt lat="45.46566" lon="4.08896">
        <ele>638.45</ele>
        <time>2023-07-01T14:09:11Z</time>
      </trkpt>
      <trkpt lat="45.46594" lon="4.08918">
        <ele>637.01</ele>
        <time>2023-07-01T14:09:30Z</time>
      </trkpt>
      <trkpt lat="45.46601" lon="4.0895">
        <ele>636.53</ele>
        <time>2023-07-01T14:09:45Z</time>
      </trkpt>
      <trkpt lat="45.46616" lon="4.08993">
        <ele>639.41</ele>
        <time>2023-07-01T14:10:05Z</time>
      </trkpt>
      <trkpt lat="45.46618" lon="4.08999">
        <ele>639.89</ele>
        <time>2023-07-01T14:10:08Z</time>
      </trkpt>
      <trkpt lat="45.46618" lon="4.09001">
        <ele>640.38</ele>
        <time>2023-07-01T14:10:09Z</time>
      </trkpt>
      <trkpt lat="45.46624" lon="4.09037">
        <ele>639.41</ele>
        <time>2023-07-01T14:10:25Z</time>
      </trkpt>
      <trkpt lat="45.46633" lon="4.0907">
        <ele>636.53</ele>
        <time>2023-07-01T14:10:42Z</time>
      </trkpt>
      <trkpt lat="45.46633" lon="4.09072">
        <ele>636.05</ele>
        <time>2023-07-01T14:10:43Z</time>
      </trkpt>
      <trkpt lat="45.46632" lon="4.09074">
        <ele>636.05</ele>
        <time>2023-07-01T14:10:44Z</time>
      </trkpt>
      <trkpt lat="45.46632" lon="4.09109">
        <ele>632.2</ele>
        <time>2023-07-01T14:11:01Z</time>
      </trkpt>
      <trkpt lat="45.46636" lon="4.09128">
        <ele>631.24</ele>
        <time>2023-07-01T14:11:17Z</time>
      </trkpt>
      <trkpt lat="45.4664" lon="4.09134">
        <ele>631.24</ele>
        <time>2023-07-01T14:11:38Z</time>
      </trkpt>
      <trkpt lat="45.46638" lon="4.09135">
        <ele>629.8</ele>
        <time>2023-07-01T14:12:02Z</time>
      </trkpt>
      <trkpt lat="45.4664" lon="4.09138">
        <ele>629.32</ele>
        <time>2023-07-01T14:12:26Z</time>
      </trkpt>
      <trkpt lat="45.46637" lon="4.09133">
        <ele>630.28</ele>
        <time>2023-07-01T14:12:59Z</time>
      </trkpt>
      <trkpt lat="45.46633" lon="4.09135">
        <ele>630.28</ele>
        <time>2023-07-01T14:13:20Z</time>
      </trkpt>
      <trkpt lat="45.46635" lon="4.09132">
        <ele>630.28</ele>
        <time>2023-07-01T14:13:47Z</time>
      </trkpt>
      <trkpt lat="45.46634" lon="4.09127">
        <ele>632.2</ele>
        <time>2023-07-01T14:14:14Z</time>
      </trkpt>
      <trkpt lat="45.46633" lon="4.09122">
        <ele>635.57</ele>
        <time>2023-07-01T14:14:44Z</time>
      </trkpt>
      <trkpt lat="45.46632" lon="4.09121">
        <ele>637.97</ele>
        <time>2023-07-01T14:15:22Z</time>
      </trkpt>
      <trkpt lat="45.46631" lon="4.09126">
        <ele>637.97</ele>
        <time>2023-07-01T14:15:34Z</time>
      </trkpt>
      <trkpt lat="45.46636" lon="4.09131">
        <ele>634.61</ele>
        <time>2023-07-01T14:15:59Z</time>
      </trkpt>
      <trkpt lat="45.46634" lon="4.09134">
        <ele>630.76</ele>
        <time>2023-07-01T14:16:28Z</time>
      </trkpt>
      <trkpt lat="45.46635" lon="4.09132">
        <ele>630.28</ele>
        <time>2023-07-01T14:16:57Z</time>
      </trkpt>
      <trkpt lat="45.46637" lon="4.09128">
        <ele>630.28</ele>
        <time>2023-07-01T14:17:23Z</time>
      </trkpt>
      <trkpt lat="45.46641" lon="4.09128">
        <ele>631.24</ele>
        <time>2023-07-01T14:17:51Z</time>
      </trkpt>
      <trkpt lat="45.46639" lon="4.09125">
        <ele>632.68</ele>
        <time>2023-07-01T14:18:21Z</time>
      </trkpt>
      <trkpt lat="45.4664" lon="4.09131">
        <ele>634.61</ele>
        <time>2023-07-01T14:18:54Z</time>
      </trkpt>
      <trkpt lat="45.46639" lon="4.09132">
        <ele>631.72</ele>
        <time>2023-07-01T14:19:26Z</time>
      </trkpt>
      <trkpt lat="45.4664" lon="4.09135">
        <ele>629.8</ele>
        <time>2023-07-01T14:19:54Z</time>
      </trkpt>
      <trkpt lat="45.46639" lon="4.09134">
        <ele>626.92</ele>
        <time>2023-07-01T14:20:25Z</time>
      </trkpt>
      <trkpt lat="45.46641" lon="4.09138">
        <ele>630.76</ele>
        <time>2023-07-01T14:20:59Z</time>
      </trkpt>
      <trkpt lat="45.46638" lon="4.09143">
        <ele>627.88</ele>
        <time>2023-07-01T14:21:12Z</time>
      </trkpt>
      <trkpt lat="45.46637" lon="4.09142">
        <ele>627.88</ele>
        <time>2023-07-01T14:21:44Z</time>
      </trkpt>
      <trkpt lat="45.46636" lon="4.09136">
        <ele>629.8</ele>
        <time>2023-07-01T14:22:20Z</time>
      </trkpt>
      <trkpt lat="45.46639" lon="4.09135">
        <ele>631.72</ele>
        <time>2023-07-01T14:22:49Z</time>
      </trkpt>
      <trkpt lat="45.46638" lon="4.09139">
        <ele>629.8</ele>
        <time>2023-07-01T14:23:17Z</time>
      </trkpt>
      <trkpt lat="45.46637" lon="4.09142">
        <ele>624.51</ele>
        <time>2023-07-01T14:23:49Z</time>
      </trkpt>
      <trkpt lat="45.46637" lon="4.09138">
        <ele>624.99</ele>
        <time>2023-07-01T14:24:21Z</time>
      </trkpt>
      <trkpt lat="45.46638" lon="4.09136">
        <ele>628.36</ele>
        <time>2023-07-01T14:24:50Z</time>
      </trkpt>
      <trkpt lat="45.46637" lon="4.09138">
        <ele>629.32</ele>
        <time>2023-07-01T14:25:25Z</time>
      </trkpt>
      <trkpt lat="45.46637" lon="4.09143">
        <ele>625.96</ele>
        <time>2023-07-01T14:26:00Z</time>
      </trkpt>
      <trkpt lat="45.46633" lon="4.09145">
        <ele>625.96</ele>
        <time>2023-07-01T14:26:46Z</time>
      </trkpt>
      <trkpt lat="45.46635" lon="4.0914">
        <ele>627.88</ele>
        <time>2023-07-01T14:27:30Z</time>
      </trkpt>
      <trkpt lat="45.46635" lon="4.09139">
        <ele>625.96</ele>
        <time>2023-07-01T14:28:11Z</time>
      </trkpt>
      <trkpt lat="45.46633" lon="4.09138">
        <ele>624.51</ele>
        <time>2023-07-01T14:28:44Z</time>
      </trkpt>
      <trkpt lat="45.46633" lon="4.09137">
        <ele>621.63</ele>
        <time>2023-07-01T14:29:26Z</time>
      </trkpt>
      <trkpt lat="45.46634" lon="4.09139">
        <ele>623.55</ele>
        <time>2023-07-01T14:29:59Z</time>
      </trkpt>
      <trkpt lat="45.46634" lon="4.09139">
        <ele>624.51</ele>
        <time>2023-07-01T14:30:38Z</time>
      </trkpt>
      <trkpt lat="45.46634" lon="4.09139">
        <ele>624.99</ele>
        <time>2023-07-01T14:31:01Z</time>
      </trkpt>
      <trkpt lat="45.46633" lon="4.09138">
        <ele>624.51</ele>
        <time>2023-07-01T14:31:29Z</time>
      </trkpt>
      <trkpt lat="45.46634" lon="4.09137">
        <ele>627.4</ele>
        <time>2023-07-01T14:31:52Z</time>
      </trkpt>
      <trkpt lat="45.46633" lon="4.09134">
        <ele>629.8</ele>
        <time>2023-07-01T14:32:13Z</time>
      </trkpt>
      <trkpt lat="45.46633" lon="4.09132">
        <ele>629.8</ele>
        <time>2023-07-01T14:32:14Z</time>
      </trkpt>
      <trkpt lat="45.46633" lon="4.0913">
        <ele>630.28</ele>
        <time>2023-07-01T14:32:15Z</time>
      </trkpt>
      <trkpt lat="45.46633" lon="4.09127">
        <ele>631.72</ele>
        <time>2023-07-01T14:32:27Z</time>
      </trkpt>
      <trkpt lat="45.46635" lon="4.09128">
        <ele>630.76</ele>
        <time>2023-07-01T14:32:46Z</time>
      </trkpt>
      <trkpt lat="45.46637" lon="4.09134">
        <ele>631.24</ele>
        <time>2023-07-01T14:32:53Z</time>
      </trkpt>
      <trkpt lat="45.46638" lon="4.09135">
        <ele>631.24</ele>
        <time>2023-07-01T14:32:54Z</time>
      </trkpt>
      <trkpt lat="45.46639" lon="4.09136">
        <ele>631.24</ele>
        <time>2023-07-01T14:32:55Z</time>
      </trkpt>
      <trkpt lat="45.46639" lon="4.09134">
        <ele>630.76</ele>
        <time>2023-07-01T14:33:11Z</time>
      </trkpt>
      <trkpt lat="45.46636" lon="4.09133">
        <ele>630.76</ele>
        <time>2023-07-01T14:33:35Z</time>
      </trkpt>
      <trkpt lat="45.46637" lon="4.09134">
        <ele>633.17</ele>
        <time>2023-07-01T14:33:57Z</time>
      </trkpt>
      <trkpt lat="45.46636" lon="4.09132">
        <ele>634.13</ele>
        <time>2023-07-01T14:34:20Z</time>
      </trkpt>
      <trkpt lat="45.46638" lon="4.09137">
        <ele>630.76</ele>
        <time>2023-07-01T14:34:36Z</time>
      </trkpt>
      <trkpt lat="45.46633" lon="4.09132">
        <ele>630.28</ele>
        <time>2023-07-01T14:34:47Z</time>
      </trkpt>
      <trkpt lat="45.46623" lon="4.09132">
        <ele>631.24</ele>
        <time>2023-07-01T14:35:03Z</time>
      </trkpt>
      <trkpt lat="45.46622" lon="4.09133">
        <ele>631.24</ele>
        <time>2023-07-01T14:35:04Z</time>
      </trkpt>
      <trkpt lat="45.46608" lon="4.09143">
        <ele>629.8</ele>
        <time>2023-07-01T14:35:18Z</time>
      </trkpt>
      <trkpt lat="45.4659" lon="4.09159">
        <ele>624.03</ele>
        <time>2023-07-01T14:35:32Z</time>
      </trkpt>
      <trkpt lat="45.46565" lon="4.0918">
        <ele>620.19</ele>
        <time>2023-07-01T14:35:52Z</time>
      </trkpt>
      <trkpt lat="45.46542" lon="4.09195">
        <ele>617.78</ele>
        <time>2023-07-01T14:36:09Z</time>
      </trkpt>
      <trkpt lat="45.46522" lon="4.09222">
        <ele>617.3</ele>
        <time>2023-07-01T14:36:22Z</time>
      </trkpt>
      <trkpt lat="45.46521" lon="4.09226">
        <ele>617.3</ele>
        <time>2023-07-01T14:36:24Z</time>
      </trkpt>
      <trkpt lat="45.4652" lon="4.09227">
        <ele>617.78</ele>
        <time>2023-07-01T14:36:25Z</time>
      </trkpt>
      <trkpt lat="45.46519" lon="4.09229">
        <ele>617.78</ele>
        <time>2023-07-01T14:36:26Z</time>
      </trkpt>
      <trkpt lat="45.46519" lon="4.09231">
        <ele>617.78</ele>
        <time>2023-07-01T14:36:27Z</time>
      </trkpt>
      <trkpt lat="45.46518" lon="4.09233">
        <ele>618.26</ele>
        <time>2023-07-01T14:36:28Z</time>
      </trkpt>
      <trkpt lat="45.46517" lon="4.09235">
        <ele>618.26</ele>
        <time>2023-07-01T14:36:29Z</time>
      </trkpt>
      <trkpt lat="45.46517" lon="4.09237">
        <ele>618.26</ele>
        <time>2023-07-01T14:36:30Z</time>
      </trkpt>
      <trkpt lat="45.46506" lon="4.09266">
        <ele>620.19</ele>
        <time>2023-07-01T14:36:44Z</time>
      </trkpt>
      <trkpt lat="45.46505" lon="4.09269">
        <ele>620.19</ele>
        <time>2023-07-01T14:36:45Z</time>
      </trkpt>
      <trkpt lat="45.46504" lon="4.09272">
        <ele>619.71</ele>
        <time>2023-07-01T14:36:46Z</time>
      </trkpt>
      <trkpt lat="45.46503" lon="4.09275">
        <ele>619.71</ele>
        <time>2023-07-01T14:36:47Z</time>
      </trkpt>
      <trkpt lat="45.46502" lon="4.09278">
        <ele>619.71</ele>
        <time>2023-07-01T14:36:48Z</time>
      </trkpt>
      <trkpt lat="45.46501" lon="4.09282">
        <ele>620.19</ele>
        <time>2023-07-01T14:36:49Z</time>
      </trkpt>
      <trkpt lat="45.465" lon="4.09285">
        <ele>620.19</ele>
        <time>2023-07-01T14:36:50Z</time>
      </trkpt>
      <trkpt lat="45.46491" lon="4.09325">
        <ele>622.59</ele>
        <time>2023-07-01T14:37:03Z</time>
      </trkpt>
      <trkpt lat="45.46479" lon="4.09364">
        <ele>625.96</ele>
        <time>2023-07-01T14:37:24Z</time>
      </trkpt>
      <trkpt lat="45.46469" lon="4.094">
        <ele>627.88</ele>
        <time>2023-07-01T14:37:42Z</time>
      </trkpt>
      <trkpt lat="45.46458" lon="4.09431">
        <ele>625.96</ele>
        <time>2023-07-01T14:38:01Z</time>
      </trkpt>
      <trkpt lat="45.46437" lon="4.0946">
        <ele>622.11</ele>
        <time>2023-07-01T14:38:20Z</time>
      </trkpt>
      <trkpt lat="45.46415" lon="4.09474">
        <ele>618.75</ele>
        <time>2023-07-01T14:38:37Z</time>
      </trkpt>
      <trkpt lat="45.4641" lon="4.09475">
        <ele>617.78</ele>
        <time>2023-07-01T14:38:41Z</time>
      </trkpt>
      <trkpt lat="45.46389" lon="4.09471">
        <ele>613.94</ele>
        <time>2023-07-01T14:38:55Z</time>
      </trkpt>
      <trkpt lat="45.46387" lon="4.0947">
        <ele>613.94</ele>
        <time>2023-07-01T14:38:57Z</time>
      </trkpt>
      <trkpt lat="45.46386" lon="4.0947">
        <ele>613.94</ele>
        <time>2023-07-01T14:38:58Z</time>
      </trkpt>
      <trkpt lat="45.46385" lon="4.0947">
        <ele>613.94</ele>
        <time>2023-07-01T14:38:59Z</time>
      </trkpt>
      <trkpt lat="45.46364" lon="4.0947">
        <ele>609.13</ele>
        <time>2023-07-01T14:39:14Z</time>
      </trkpt>
      <trkpt lat="45.46361" lon="4.09471">
        <ele>607.21</ele>
        <time>2023-07-01T14:39:19Z</time>
      </trkpt>
      <trkpt lat="45.4636" lon="4.09472">
        <ele>607.21</ele>
        <time>2023-07-01T14:39:20Z</time>
      </trkpt>
      <trkpt lat="45.46332" lon="4.09484">
        <ele>605.29</ele>
        <time>2023-07-01T14:39:35Z</time>
      </trkpt>
      <trkpt lat="45.4631" lon="4.09476">
        <ele>604.33</ele>
        <time>2023-07-01T14:39:50Z</time>
      </trkpt>
      <trkpt lat="45.46286" lon="4.09469">
        <ele>600.48</ele>
        <time>2023-07-01T14:40:07Z</time>
      </trkpt>
      <trkpt lat="45.46262" lon="4.09467">
        <ele>597.6</ele>
        <time>2023-07-01T14:40:23Z</time>
      </trkpt>
      <trkpt lat="45.46254" lon="4.09462">
        <ele>596.64</ele>
        <time>2023-07-01T14:40:29Z</time>
      </trkpt>
      <trkpt lat="45.46253" lon="4.09462">
        <ele>596.15</ele>
        <time>2023-07-01T14:40:30Z</time>
      </trkpt>
      <trkpt lat="45.46252" lon="4.09461">
        <ele>595.67</ele>
        <time>2023-07-01T14:40:31Z</time>
      </trkpt>
      <trkpt lat="45.4625" lon="4.09461">
        <ele>595.19</ele>
        <time>2023-07-01T14:40:32Z</time>
      </trkpt>
      <trkpt lat="45.46249" lon="4.0946">
        <ele>594.71</ele>
        <time>2023-07-01T14:40:33Z</time>
      </trkpt>
      <trkpt lat="45.46248" lon="4.09459">
        <ele>594.23</ele>
        <time>2023-07-01T14:40:34Z</time>
      </trkpt>
      <trkpt lat="45.46246" lon="4.09457">
        <ele>593.75</ele>
        <time>2023-07-01T14:40:35Z</time>
      </trkpt>
      <trkpt lat="45.46223" lon="4.09439">
        <ele>590.87</ele>
        <time>2023-07-01T14:40:47Z</time>
      </trkpt>
      <trkpt lat="45.46197" lon="4.09436">
        <ele>585.1</ele>
        <time>2023-07-01T14:40:58Z</time>
      </trkpt>
      <trkpt lat="45.46184" lon="4.0943">
        <ele>581.73</ele>
        <time>2023-07-01T14:41:04Z</time>
      </trkpt>
      <trkpt lat="45.46181" lon="4.09431">
        <ele>580.29</ele>
        <time>2023-07-01T14:41:06Z</time>
      </trkpt>
      <trkpt lat="45.4617" lon="4.09445">
        <ele>575.01</ele>
        <time>2023-07-01T14:41:14Z</time>
      </trkpt>
      <trkpt lat="45.46169" lon="4.09448">
        <ele>575.01</ele>
        <time>2023-07-01T14:41:15Z</time>
      </trkpt>
      <trkpt lat="45.46168" lon="4.09451">
        <ele>575.01</ele>
        <time>2023-07-01T14:41:16Z</time>
      </trkpt>
      <trkpt lat="45.46168" lon="4.09454">
        <ele>575.49</ele>
        <time>2023-07-01T14:41:17Z</time>
      </trkpt>
      <trkpt lat="45.46168" lon="4.09457">
        <ele>575.97</ele>
        <time>2023-07-01T14:41:18Z</time>
      </trkpt>
      <trkpt lat="45.46168" lon="4.0946">
        <ele>576.93</ele>
        <time>2023-07-01T14:41:19Z</time>
      </trkpt>
      <trkpt lat="45.46168" lon="4.09461">
        <ele>577.89</ele>
        <time>2023-07-01T14:41:20Z</time>
      </trkpt>
      <trkpt lat="45.46169" lon="4.09462">
        <ele>578.85</ele>
        <time>2023-07-01T14:41:21Z</time>
      </trkpt>
      <trkpt lat="45.46182" lon="4.09473">
        <ele>584.14</ele>
        <time>2023-07-01T14:41:34Z</time>
      </trkpt>
      <trkpt lat="45.46197" lon="4.09487">
        <ele>592.31</ele>
        <time>2023-07-01T14:41:47Z</time>
      </trkpt>
      <trkpt lat="45.46203" lon="4.09502">
        <ele>596.64</ele>
        <time>2023-07-01T14:41:58Z</time>
      </trkpt>
      <trkpt lat="45.46207" lon="4.09508">
        <ele>596.64</ele>
        <time>2023-07-01T14:42:02Z</time>
      </trkpt>
      <trkpt lat="45.46207" lon="4.0951">
        <ele>596.64</ele>
        <time>2023-07-01T14:42:03Z</time>
      </trkpt>
      <trkpt lat="45.46211" lon="4.09522">
        <ele>596.64</ele>
        <time>2023-07-01T14:42:13Z</time>
      </trkpt>
      <trkpt lat="45.46213" lon="4.0953">
        <ele>596.64</ele>
        <time>2023-07-01T14:42:17Z</time>
      </trkpt>
      <trkpt lat="45.46215" lon="4.0954">
        <ele>597.12</ele>
        <time>2023-07-01T14:42:22Z</time>
      </trkpt>
      <trkpt lat="45.46215" lon="4.09542">
        <ele>597.12</ele>
        <time>2023-07-01T14:42:23Z</time>
      </trkpt>
      <trkpt lat="45.46216" lon="4.09549">
        <ele>598.08</ele>
        <time>2023-07-01T14:42:26Z</time>
      </trkpt>
      <trkpt lat="45.46217" lon="4.09551">
        <ele>598.56</ele>
        <time>2023-07-01T14:42:27Z</time>
      </trkpt>
      <trkpt lat="45.46218" lon="4.09553">
        <ele>598.56</ele>
        <time>2023-07-01T14:42:28Z</time>
      </trkpt>
      <trkpt lat="45.46219" lon="4.09555">
        <ele>599.04</ele>
        <time>2023-07-01T14:42:29Z</time>
      </trkpt>
      <trkpt lat="45.4622" lon="4.09558">
        <ele>599.52</ele>
        <time>2023-07-01T14:42:30Z</time>
      </trkpt>
      <trkpt lat="45.46231" lon="4.09586">
        <ele>600.96</ele>
        <time>2023-07-01T14:42:43Z</time>
      </trkpt>
      <trkpt lat="45.46238" lon="4.09603">
        <ele>602.4</ele>
        <time>2023-07-01T14:42:50Z</time>
      </trkpt>
      <trkpt lat="45.46239" lon="4.09606">
        <ele>602.88</ele>
        <time>2023-07-01T14:42:51Z</time>
      </trkpt>
      <trkpt lat="45.46239" lon="4.09608">
        <ele>602.88</ele>
        <time>2023-07-01T14:42:52Z</time>
      </trkpt>
      <trkpt lat="45.4624" lon="4.0961">
        <ele>602.88</ele>
        <time>2023-07-01T14:42:53Z</time>
      </trkpt>
      <trkpt lat="45.4624" lon="4.09612">
        <ele>602.88</ele>
        <time>2023-07-01T14:42:54Z</time>
      </trkpt>
      <trkpt lat="45.4624" lon="4.09615">
        <ele>602.88</ele>
        <time>2023-07-01T14:42:55Z</time>
      </trkpt>
      <trkpt lat="45.4624" lon="4.09617">
        <ele>602.88</ele>
        <time>2023-07-01T14:42:56Z</time>
      </trkpt>
      <trkpt lat="45.4624" lon="4.09619">
        <ele>602.88</ele>
        <time>2023-07-01T14:42:57Z</time>
      </trkpt>
      <trkpt lat="45.46239" lon="4.09626">
        <ele>602.4</ele>
        <time>2023-07-01T14:43:01Z</time>
      </trkpt>
      <trkpt lat="45.46253" lon="4.09646">
        <ele>604.33</ele>
        <time>2023-07-01T14:43:13Z</time>
      </trkpt>
      <trkpt lat="45.46262" lon="4.09653">
        <ele>606.25</ele>
        <time>2023-07-01T14:43:19Z</time>
      </trkpt>
      <trkpt lat="45.46274" lon="4.09668">
        <ele>607.69</ele>
        <time>2023-07-01T14:43:32Z</time>
      </trkpt>
      <trkpt lat="45.46275" lon="4.09669">
        <ele>607.69</ele>
        <time>2023-07-01T14:43:33Z</time>
      </trkpt>
      <trkpt lat="45.46279" lon="4.09674">
        <ele>607.69</ele>
        <time>2023-07-01T14:43:40Z</time>
      </trkpt>
      <trkpt lat="45.46283" lon="4.09677">
        <ele>608.17</ele>
        <time>2023-07-01T14:43:44Z</time>
      </trkpt>
      <trkpt lat="45.46284" lon="4.09679">
        <ele>608.65</ele>
        <time>2023-07-01T14:43:45Z</time>
      </trkpt>
      <trkpt lat="45.46285" lon="4.0968">
        <ele>609.13</ele>
        <time>2023-07-01T14:43:46Z</time>
      </trkpt>
      <trkpt lat="45.46286" lon="4.09681">
        <ele>609.61</ele>
        <time>2023-07-01T14:43:47Z</time>
      </trkpt>
      <trkpt lat="45.46287" lon="4.09682">
        <ele>610.09</ele>
        <time>2023-07-01T14:43:48Z</time>
      </trkpt>
      <trkpt lat="45.46298" lon="4.09701">
        <ele>610.09</ele>
        <time>2023-07-01T14:44:00Z</time>
      </trkpt>
      <trkpt lat="45.46332" lon="4.09724">
        <ele>605.29</ele>
        <time>2023-07-01T14:44:09Z</time>
      </trkpt>
      <trkpt lat="45.46337" lon="4.09728">
        <ele>604.33</ele>
        <time>2023-07-01T14:44:10Z</time>
      </trkpt>
      <trkpt lat="45.46341" lon="4.09734">
        <ele>603.36</ele>
        <time>2023-07-01T14:44:11Z</time>
      </trkpt>
      <trkpt lat="45.46346" lon="4.0974">
        <ele>602.4</ele>
        <time>2023-07-01T14:44:12Z</time>
      </trkpt>
      <trkpt lat="45.4635" lon="4.09746">
        <ele>601.44</ele>
        <time>2023-07-01T14:44:13Z</time>
      </trkpt>
      <trkpt lat="45.46353" lon="4.09754">
        <ele>600.96</ele>
        <time>2023-07-01T14:44:14Z</time>
      </trkpt>
      <trkpt lat="45.46355" lon="4.09761">
        <ele>600.48</ele>
        <time>2023-07-01T14:44:15Z</time>
      </trkpt>
      <trkpt lat="45.46357" lon="4.09768">
        <ele>601.44</ele>
        <time>2023-07-01T14:44:16Z</time>
      </trkpt>
      <trkpt lat="45.46357" lon="4.09774">
        <ele>602.4</ele>
        <time>2023-07-01T14:44:17Z</time>
      </trkpt>
      <trkpt lat="45.46357" lon="4.0978">
        <ele>603.85</ele>
        <time>2023-07-01T14:44:18Z</time>
      </trkpt>
      <trkpt lat="45.46356" lon="4.09786">
        <ele>604.81</ele>
        <time>2023-07-01T14:44:19Z</time>
      </trkpt>
      <trkpt lat="45.46355" lon="4.09792">
        <ele>605.77</ele>
        <time>2023-07-01T14:44:20Z</time>
      </trkpt>
      <trkpt lat="45.46355" lon="4.09798">
        <ele>606.73</ele>
        <time>2023-07-01T14:44:21Z</time>
      </trkpt>
      <trkpt lat="45.46354" lon="4.09803">
        <ele>608.17</ele>
        <time>2023-07-01T14:44:22Z</time>
      </trkpt>
      <trkpt lat="45.46353" lon="4.09809">
        <ele>609.13</ele>
        <time>2023-07-01T14:44:23Z</time>
      </trkpt>
      <trkpt lat="45.46351" lon="4.09814">
        <ele>610.09</ele>
        <time>2023-07-01T14:44:24Z</time>
      </trkpt>
      <trkpt lat="45.4635" lon="4.09819">
        <ele>611.06</ele>
        <time>2023-07-01T14:44:25Z</time>
      </trkpt>
      <trkpt lat="45.46349" lon="4.09824">
        <ele>611.54</ele>
        <time>2023-07-01T14:44:26Z</time>
      </trkpt>
      <trkpt lat="45.46348" lon="4.09828">
        <ele>612.5</ele>
        <time>2023-07-01T14:44:27Z</time>
      </trkpt>
      <trkpt lat="45.46348" lon="4.09833">
        <ele>613.46</ele>
        <time>2023-07-01T14:44:28Z</time>
      </trkpt>
      <trkpt lat="45.46347" lon="4.09837">
        <ele>613.94</ele>
        <time>2023-07-01T14:44:29Z</time>
      </trkpt>
      <trkpt lat="45.46346" lon="4.09841">
        <ele>614.9</ele>
        <time>2023-07-01T14:44:30Z</time>
      </trkpt>
      <trkpt lat="45.46346" lon="4.09845">
        <ele>615.86</ele>
        <time>2023-07-01T14:44:31Z</time>
      </trkpt>
      <trkpt lat="45.46345" lon="4.09848">
        <ele>616.34</ele>
        <time>2023-07-01T14:44:32Z</time>
      </trkpt>
      <trkpt lat="45.46344" lon="4.09851">
        <ele>616.82</ele>
        <time>2023-07-01T14:44:33Z</time>
      </trkpt>
      <trkpt lat="45.46344" lon="4.09854">
        <ele>617.78</ele>
        <time>2023-07-01T14:44:34Z</time>
      </trkpt>
      <trkpt lat="45.46344" lon="4.09903">
        <ele>623.55</ele>
        <time>2023-07-01T14:44:48Z</time>
      </trkpt>
      <trkpt lat="45.46333" lon="4.09954">
        <ele>629.32</ele>
        <time>2023-07-01T14:45:01Z</time>
      </trkpt>
      <trkpt lat="45.46322" lon="4.09987">
        <ele>633.17</ele>
        <time>2023-07-01T14:45:14Z</time>
      </trkpt>
      <trkpt lat="45.46312" lon="4.10016">
        <ele>634.61</ele>
        <time>2023-07-01T14:45:26Z</time>
      </trkpt>
      <trkpt lat="45.46306" lon="4.10032">
        <ele>634.61</ele>
        <time>2023-07-01T14:45:33Z</time>
      </trkpt>
      <trkpt lat="45.46306" lon="4.10034">
        <ele>634.61</ele>
        <time>2023-07-01T14:45:34Z</time>
      </trkpt>
      <trkpt lat="45.46305" lon="4.10037">
        <ele>634.61</ele>
        <time>2023-07-01T14:45:35Z</time>
      </trkpt>
      <trkpt lat="45.46296" lon="4.1007">
        <ele>636.53</ele>
        <time>2023-07-01T14:45:48Z</time>
      </trkpt>
      <trkpt lat="45.46285" lon="4.1011">
        <ele>636.05</ele>
        <time>2023-07-01T14:46:05Z</time>
      </trkpt>
      <trkpt lat="45.46265" lon="4.1013">
        <ele>634.13</ele>
        <time>2023-07-01T14:46:18Z</time>
      </trkpt>
      <trkpt lat="45.46242" lon="4.10149">
        <ele>633.65</ele>
        <time>2023-07-01T14:46:34Z</time>
      </trkpt>
      <trkpt lat="45.46232" lon="4.10158">
        <ele>633.17</ele>
        <time>2023-07-01T14:46:42Z</time>
      </trkpt>
      <trkpt lat="45.4623" lon="4.10159">
        <ele>632.68</ele>
        <time>2023-07-01T14:46:43Z</time>
      </trkpt>
      <trkpt lat="45.46229" lon="4.1016">
        <ele>632.2</ele>
        <time>2023-07-01T14:46:44Z</time>
      </trkpt>
      <trkpt lat="45.46228" lon="4.10161">
        <ele>632.2</ele>
        <time>2023-07-01T14:46:45Z</time>
      </trkpt>
      <trkpt lat="45.46227" lon="4.10162">
        <ele>631.72</ele>
        <time>2023-07-01T14:46:46Z</time>
      </trkpt>
      <trkpt lat="45.46226" lon="4.10164">
        <ele>631.24</ele>
        <time>2023-07-01T14:46:47Z</time>
      </trkpt>
      <trkpt lat="45.46225" lon="4.10165">
        <ele>631.24</ele>
        <time>2023-07-01T14:46:48Z</time>
      </trkpt>
      <trkpt lat="45.46224" lon="4.10167">
        <ele>630.76</ele>
        <time>2023-07-01T14:46:49Z</time>
      </trkpt>
      <trkpt lat="45.46223" lon="4.10168">
        <ele>630.28</ele>
        <time>2023-07-01T14:46:50Z</time>
      </trkpt>
      <trkpt lat="45.4622" lon="4.10172">
        <ele>629.8</ele>
        <time>2023-07-01T14:46:53Z</time>
      </trkpt>
      <trkpt lat="45.46201" lon="4.10196">
        <ele>626.92</ele>
        <time>2023-07-01T14:47:08Z</time>
      </trkpt>
      <trkpt lat="45.462" lon="4.10197">
        <ele>626.92</ele>
        <time>2023-07-01T14:47:09Z</time>
      </trkpt>
      <trkpt lat="45.46199" lon="4.10198">
        <ele>626.44</ele>
        <time>2023-07-01T14:47:10Z</time>
      </trkpt>
      <trkpt lat="45.46183" lon="4.10206">
        <ele>624.51</ele>
        <time>2023-07-01T14:47:21Z</time>
      </trkpt>
      <trkpt lat="45.46162" lon="4.10208">
        <ele>624.51</ele>
        <time>2023-07-01T14:47:34Z</time>
      </trkpt>
      <trkpt lat="45.46137" lon="4.102">
        <ele>624.99</ele>
        <time>2023-07-01T14:47:47Z</time>
      </trkpt>
      <trkpt lat="45.46108" lon="4.10194">
        <ele>625.47</ele>
        <time>2023-07-01T14:48:03Z</time>
      </trkpt>
      <trkpt lat="45.46102" lon="4.10196">
        <ele>626.44</ele>
        <time>2023-07-01T14:48:15Z</time>
      </trkpt>
      <trkpt lat="45.46103" lon="4.10192">
        <ele>625.96</ele>
        <time>2023-07-01T14:48:34Z</time>
      </trkpt>
      <trkpt lat="45.46103" lon="4.10194">
        <ele>626.44</ele>
        <time>2023-07-01T14:48:51Z</time>
      </trkpt>
      <trkpt lat="45.46078" lon="4.10226">
        <ele>627.4</ele>
        <time>2023-07-01T14:49:01Z</time>
      </trkpt>
      <trkpt lat="45.46057" lon="4.10256">
        <ele>627.4</ele>
        <time>2023-07-01T14:49:06Z</time>
      </trkpt>
      <trkpt lat="45.46054" lon="4.10263">
        <ele>627.4</ele>
        <time>2023-07-01T14:49:07Z</time>
      </trkpt>
      <trkpt lat="45.4604" lon="4.103">
        <ele>626.92</ele>
        <time>2023-07-01T14:49:12Z</time>
      </trkpt>
      <trkpt lat="45.46038" lon="4.10306">
        <ele>626.92</ele>
        <time>2023-07-01T14:49:13Z</time>
      </trkpt>
      <trkpt lat="45.46034" lon="4.10311">
        <ele>626.92</ele>
        <time>2023-07-01T14:49:14Z</time>
      </trkpt>
      <trkpt lat="45.4603" lon="4.10314">
        <ele>627.4</ele>
        <time>2023-07-01T14:49:15Z</time>
      </trkpt>
      <trkpt lat="45.46026" lon="4.10317">
        <ele>627.4</ele>
        <time>2023-07-01T14:49:16Z</time>
      </trkpt>
      <trkpt lat="45.46022" lon="4.1032">
        <ele>627.88</ele>
        <time>2023-07-01T14:49:17Z</time>
      </trkpt>
      <trkpt lat="45.46013" lon="4.10326">
        <ele>628.84</ele>
        <time>2023-07-01T14:49:19Z</time>
      </trkpt>
      <trkpt lat="45.46009" lon="4.1033">
        <ele>629.32</ele>
        <time>2023-07-01T14:49:20Z</time>
      </trkpt>
      <trkpt lat="45.46004" lon="4.10333">
        <ele>629.8</ele>
        <time>2023-07-01T14:49:21Z</time>
      </trkpt>
      <trkpt lat="45.45994" lon="4.10337">
        <ele>630.28</ele>
        <time>2023-07-01T14:49:23Z</time>
      </trkpt>
      <trkpt lat="45.45974" lon="4.10346">
        <ele>632.2</ele>
        <time>2023-07-01T14:49:27Z</time>
      </trkpt>
      <trkpt lat="45.45948" lon="4.10358">
        <ele>632.68</ele>
        <time>2023-07-01T14:49:33Z</time>
      </trkpt>
      <trkpt lat="45.45944" lon="4.1036">
        <ele>632.68</ele>
        <time>2023-07-01T14:49:34Z</time>
      </trkpt>
      <trkpt lat="45.4594" lon="4.10364">
        <ele>632.68</ele>
        <time>2023-07-01T14:49:35Z</time>
      </trkpt>
      <trkpt lat="45.45907" lon="4.10387">
        <ele>633.65</ele>
        <time>2023-07-01T14:49:45Z</time>
      </trkpt>
      <trkpt lat="45.45884" lon="4.10398">
        <ele>635.09</ele>
        <time>2023-07-01T14:49:51Z</time>
      </trkpt>
      <trkpt lat="45.4588" lon="4.10398">
        <ele>635.57</ele>
        <time>2023-07-01T14:49:52Z</time>
      </trkpt>
      <trkpt lat="45.45875" lon="4.10398">
        <ele>636.05</ele>
        <time>2023-07-01T14:49:53Z</time>
      </trkpt>
      <trkpt lat="45.4587" lon="4.10397">
        <ele>636.53</ele>
        <time>2023-07-01T14:49:54Z</time>
      </trkpt>
      <trkpt lat="45.45866" lon="4.10396">
        <ele>636.53</ele>
        <time>2023-07-01T14:49:55Z</time>
      </trkpt>
      <trkpt lat="45.4583" lon="4.10387">
        <ele>640.38</ele>
        <time>2023-07-01T14:50:06Z</time>
      </trkpt>
      <trkpt lat="45.45818" lon="4.1041">
        <ele>644.7</ele>
        <time>2023-07-01T14:50:15Z</time>
      </trkpt>
      <trkpt lat="45.45815" lon="4.10444">
        <ele>646.14</ele>
        <time>2023-07-01T14:50:28Z</time>
      </trkpt>
      <trkpt lat="45.45809" lon="4.10475">
        <ele>645.18</ele>
        <time>2023-07-01T14:50:41Z</time>
      </trkpt>
      <trkpt lat="45.45798" lon="4.10509">
        <ele>648.55</ele>
        <time>2023-07-01T14:50:54Z</time>
      </trkpt>
      <trkpt lat="45.4579" lon="4.10545">
        <ele>649.99</ele>
        <time>2023-07-01T14:51:10Z</time>
      </trkpt>
      <trkpt lat="45.45802" lon="4.10571">
        <ele>649.03</ele>
        <time>2023-07-01T14:51:26Z</time>
      </trkpt>
      <trkpt lat="45.45803" lon="4.10577">
        <ele>648.55</ele>
        <time>2023-07-01T14:51:31Z</time>
      </trkpt>
      <trkpt lat="45.458" lon="4.10593">
        <ele>649.03</ele>
        <time>2023-07-01T14:51:41Z</time>
      </trkpt>
      <trkpt lat="45.45802" lon="4.10629">
        <ele>649.03</ele>
        <time>2023-07-01T14:51:58Z</time>
      </trkpt>
      <trkpt lat="45.45805" lon="4.10656">
        <ele>648.55</ele>
        <time>2023-07-01T14:52:12Z</time>
      </trkpt>
      <trkpt lat="45.45818" lon="4.10686">
        <ele>649.03</ele>
        <time>2023-07-01T14:52:27Z</time>
      </trkpt>
      <trkpt lat="45.45827" lon="4.10702">
        <ele>649.03</ele>
        <time>2023-07-01T14:52:37Z</time>
      </trkpt>
      <trkpt lat="45.45827" lon="4.10705">
        <ele>649.51</ele>
        <time>2023-07-01T14:52:39Z</time>
      </trkpt>
      <trkpt lat="45.45828" lon="4.10707">
        <ele>649.51</ele>
        <time>2023-07-01T14:52:40Z</time>
      </trkpt>
      <trkpt lat="45.45829" lon="4.1071">
        <ele>649.51</ele>
        <time>2023-07-01T14:52:41Z</time>
      </trkpt>
      <trkpt lat="45.45846" lon="4.10741">
        <ele>649.03</ele>
        <time>2023-07-01T14:52:57Z</time>
      </trkpt>
      <trkpt lat="45.45863" lon="4.10775">
        <ele>649.03</ele>
        <time>2023-07-01T14:53:14Z</time>
      </trkpt>
      <trkpt lat="45.45875" lon="4.10803">
        <ele>648.07</ele>
        <time>2023-07-01T14:53:28Z</time>
      </trkpt>
      <trkpt lat="45.45887" lon="4.10834">
        <ele>647.59</ele>
        <time>2023-07-01T14:53:43Z</time>
      </trkpt>
      <trkpt lat="45.45887" lon="4.1087">
        <ele>648.55</ele>
        <time>2023-07-01T14:53:57Z</time>
      </trkpt>
      <trkpt lat="45.45891" lon="4.10902">
        <ele>646.62</ele>
        <time>2023-07-01T14:54:11Z</time>
      </trkpt>
      <trkpt lat="45.45895" lon="4.10939">
        <ele>645.66</ele>
        <time>2023-07-01T14:54:26Z</time>
      </trkpt>
      <trkpt lat="45.45897" lon="4.10975">
        <ele>646.14</ele>
        <time>2023-07-01T14:54:41Z</time>
      </trkpt>
      <trkpt lat="45.45895" lon="4.11016">
        <ele>645.66</ele>
        <time>2023-07-01T14:54:57Z</time>
      </trkpt>
      <trkpt lat="45.45893" lon="4.11027">
        <ele>645.18</ele>
        <time>2023-07-01T14:55:02Z</time>
      </trkpt>
      <trkpt lat="45.45893" lon="4.1103">
        <ele>645.18</ele>
        <time>2023-07-01T14:55:03Z</time>
      </trkpt>
      <trkpt lat="45.45892" lon="4.11033">
        <ele>645.18</ele>
        <time>2023-07-01T14:55:04Z</time>
      </trkpt>
      <trkpt lat="45.45892" lon="4.11035">
        <ele>645.18</ele>
        <time>2023-07-01T14:55:05Z</time>
      </trkpt>
      <trkpt lat="45.45891" lon="4.11038">
        <ele>645.18</ele>
        <time>2023-07-01T14:55:06Z</time>
      </trkpt>
      <trkpt lat="45.45891" lon="4.1104">
        <ele>645.18</ele>
        <time>2023-07-01T14:55:07Z</time>
      </trkpt>
      <trkpt lat="45.45876" lon="4.11067">
        <ele>644.22</ele>
        <time>2023-07-01T14:55:24Z</time>
      </trkpt>
      <trkpt lat="45.4586" lon="4.11078">
        <ele>642.78</ele>
        <time>2023-07-01T14:55:36Z</time>
      </trkpt>
      <trkpt lat="45.45833" lon="4.11099">
        <ele>644.22</ele>
        <time>2023-07-01T14:55:54Z</time>
      </trkpt>
      <trkpt lat="45.45811" lon="4.11116">
        <ele>643.74</ele>
        <time>2023-07-01T14:56:09Z</time>
      </trkpt>
      <trkpt lat="45.45789" lon="4.11133">
        <ele>639.41</ele>
        <time>2023-07-01T14:56:23Z</time>
      </trkpt>
      <trkpt lat="45.45768" lon="4.11146">
        <ele>636.05</ele>
        <time>2023-07-01T14:56:36Z</time>
      </trkpt>
      <trkpt lat="45.45748" lon="4.11151">
        <ele>631.24</ele>
        <time>2023-07-01T14:56:49Z</time>
      </trkpt>
      <trkpt lat="45.45727" lon="4.11141">
        <ele>628.84</ele>
        <time>2023-07-01T14:57:01Z</time>
      </trkpt>
      <trkpt lat="45.45702" lon="4.11122">
        <ele>625.96</ele>
        <time>2023-07-01T14:57:18Z</time>
      </trkpt>
      <trkpt lat="45.45671" lon="4.11107">
        <ele>622.59</ele>
        <time>2023-07-01T14:57:37Z</time>
      </trkpt>
      <trkpt lat="45.45641" lon="4.11097">
        <ele>621.63</ele>
        <time>2023-07-01T14:57:55Z</time>
      </trkpt>
      <trkpt lat="45.45617" lon="4.11092">
        <ele>616.34</ele>
        <time>2023-07-01T14:58:10Z</time>
      </trkpt>
      <trkpt lat="45.45599" lon="4.11078">
        <ele>610.57</ele>
        <time>2023-07-01T14:58:23Z</time>
      </trkpt>
      <trkpt lat="45.45583" lon="4.11055">
        <ele>610.09</ele>
        <time>2023-07-01T14:58:38Z</time>
      </trkpt>
      <trkpt lat="45.45575" lon="4.11045">
        <ele>612.5</ele>
        <time>2023-07-01T14:58:53Z</time>
      </trkpt>
      <trkpt lat="45.4557" lon="4.11043">
        <ele>614.9</ele>
        <time>2023-07-01T14:59:19Z</time>
      </trkpt>
      <trkpt lat="45.4557" lon="4.11047">
        <ele>620.67</ele>
        <time>2023-07-01T14:59:40Z</time>
      </trkpt>
      <trkpt lat="45.45571" lon="4.11048">
        <ele>623.55</ele>
        <time>2023-07-01T15:00:02Z</time>
      </trkpt>
      <trkpt lat="45.45573" lon="4.11046">
        <ele>622.59</ele>
        <time>2023-07-01T15:00:23Z</time>
      </trkpt>
      <trkpt lat="45.45571" lon="4.11048">
        <ele>622.59</ele>
        <time>2023-07-01T15:00:46Z</time>
      </trkpt>
      <trkpt lat="45.45568" lon="4.11046">
        <ele>622.59</ele>
        <time>2023-07-01T15:00:52Z</time>
      </trkpt>
      <trkpt lat="45.45553" lon="4.11042">
        <ele>620.19</ele>
        <time>2023-07-01T15:01:04Z</time>
      </trkpt>
      <trkpt lat="45.45545" lon="4.11043">
        <ele>617.78</ele>
        <time>2023-07-01T15:01:12Z</time>
      </trkpt>
      <trkpt lat="45.45533" lon="4.11046">
        <ele>616.34</ele>
        <time>2023-07-01T15:01:21Z</time>
      </trkpt>
      <trkpt lat="45.45529" lon="4.11047">
        <ele>615.86</ele>
        <time>2023-07-01T15:01:24Z</time>
      </trkpt>
      <trkpt lat="45.4551" lon="4.11071">
        <ele>615.38</ele>
        <time>2023-07-01T15:01:39Z</time>
      </trkpt>
      <trkpt lat="45.45495" lon="4.11109">
        <ele>618.26</ele>
        <time>2023-07-01T15:01:56Z</time>
      </trkpt>
      <trkpt lat="45.45489" lon="4.11132">
        <ele>616.34</ele>
        <time>2023-07-01T15:02:10Z</time>
      </trkpt>
      <trkpt lat="45.45489" lon="4.11134">
        <ele>614.9</ele>
        <time>2023-07-01T15:02:23Z</time>
      </trkpt>
      <trkpt lat="45.45487" lon="4.11139">
        <ele>612.98</ele>
        <time>2023-07-01T15:02:41Z</time>
      </trkpt>
      <trkpt lat="45.45486" lon="4.11142">
        <ele>612.5</ele>
        <time>2023-07-01T15:03:11Z</time>
      </trkpt>
      <trkpt lat="45.45488" lon="4.11151">
        <ele>613.94</ele>
        <time>2023-07-01T15:03:26Z</time>
      </trkpt>
      <trkpt lat="45.45489" lon="4.11162">
        <ele>613.46</ele>
        <time>2023-07-01T15:03:31Z</time>
      </trkpt>
      <trkpt lat="45.455" lon="4.11193">
        <ele>615.38</ele>
        <time>2023-07-01T15:03:46Z</time>
      </trkpt>
      <trkpt lat="45.45493" lon="4.11208">
        <ele>615.38</ele>
        <time>2023-07-01T15:03:53Z</time>
      </trkpt>
      <trkpt lat="45.45473" lon="4.11236">
        <ele>618.26</ele>
        <time>2023-07-01T15:04:10Z</time>
      </trkpt>
      <trkpt lat="45.45451" lon="4.11254">
        <ele>622.11</ele>
        <time>2023-07-01T15:04:24Z</time>
      </trkpt>
      <trkpt lat="45.45422" lon="4.1125">
        <ele>624.99</ele>
        <time>2023-07-01T15:04:42Z</time>
      </trkpt>
      <trkpt lat="45.45392" lon="4.11251">
        <ele>628.84</ele>
        <time>2023-07-01T15:05:01Z</time>
      </trkpt>
      <trkpt lat="45.45371" lon="4.11254">
        <ele>631.72</ele>
        <time>2023-07-01T15:05:16Z</time>
      </trkpt>
      <trkpt lat="45.45345" lon="4.11263">
        <ele>635.57</ele>
        <time>2023-07-01T15:05:34Z</time>
      </trkpt>
      <trkpt lat="45.45325" lon="4.11278">
        <ele>636.53</ele>
        <time>2023-07-01T15:05:48Z</time>
      </trkpt>
      <trkpt lat="45.45321" lon="4.11283">
        <ele>636.05</ele>
        <time>2023-07-01T15:05:52Z</time>
      </trkpt>
      <trkpt lat="45.45314" lon="4.11319">
        <ele>637.01</ele>
        <time>2023-07-01T15:06:10Z</time>
      </trkpt>
      <trkpt lat="45.45309" lon="4.11353">
        <ele>641.34</ele>
        <time>2023-07-01T15:06:24Z</time>
      </trkpt>
      <trkpt lat="45.45291" lon="4.11365">
        <ele>645.18</ele>
        <time>2023-07-01T15:06:37Z</time>
      </trkpt>
      <trkpt lat="45.45271" lon="4.11364">
        <ele>649.51</ele>
        <time>2023-07-01T15:06:49Z</time>
      </trkpt>
      <trkpt lat="45.45254" lon="4.11375">
        <ele>653.83</ele>
        <time>2023-07-01T15:07:02Z</time>
      </trkpt>
      <trkpt lat="45.45228" lon="4.1137">
        <ele>658.64</ele>
        <time>2023-07-01T15:07:19Z</time>
      </trkpt>
      <trkpt lat="45.45204" lon="4.11364">
        <ele>661.52</ele>
        <time>2023-07-01T15:07:35Z</time>
      </trkpt>
      <trkpt lat="45.45178" lon="4.1136">
        <ele>664.41</ele>
        <time>2023-07-01T15:07:52Z</time>
      </trkpt>
      <trkpt lat="45.45151" lon="4.11359">
        <ele>666.33</ele>
        <time>2023-07-01T15:08:10Z</time>
      </trkpt>
      <trkpt lat="45.45125" lon="4.1136">
        <ele>667.77</ele>
        <time>2023-07-01T15:08:27Z</time>
      </trkpt>
      <trkpt lat="45.45097" lon="4.11363">
        <ele>665.85</ele>
        <time>2023-07-01T15:08:46Z</time>
      </trkpt>
      <trkpt lat="45.45072" lon="4.11357">
        <ele>665.37</ele>
        <time>2023-07-01T15:09:03Z</time>
      </trkpt>
      <trkpt lat="45.45046" lon="4.11351">
        <ele>662.97</ele>
        <time>2023-07-01T15:09:20Z</time>
      </trkpt>
      <trkpt lat="45.4502" lon="4.11343">
        <ele>662.49</ele>
        <time>2023-07-01T15:09:37Z</time>
      </trkpt>
      <trkpt lat="45.44996" lon="4.11334">
        <ele>661.04</ele>
        <time>2023-07-01T15:09:53Z</time>
      </trkpt>
      <trkpt lat="45.44985" lon="4.1136">
        <ele>660.08</ele>
        <time>2023-07-01T15:10:07Z</time>
      </trkpt>
      <trkpt lat="45.44976" lon="4.114">
        <ele>658.16</ele>
        <time>2023-07-01T15:10:24Z</time>
      </trkpt>
      <trkpt lat="45.44966" lon="4.11438">
        <ele>658.64</ele>
        <time>2023-07-01T15:10:42Z</time>
      </trkpt>
      <trkpt lat="45.44956" lon="4.1148">
        <ele>656.72</ele>
        <time>2023-07-01T15:11:02Z</time>
      </trkpt>
      <trkpt lat="45.44949" lon="4.11518">
        <ele>654.31</ele>
        <time>2023-07-01T15:11:19Z</time>
      </trkpt>
      <trkpt lat="45.4494" lon="4.11562">
        <ele>653.83</ele>
        <time>2023-07-01T15:11:38Z</time>
      </trkpt>
      <trkpt lat="45.44934" lon="4.11599">
        <ele>653.83</ele>
        <time>2023-07-01T15:11:54Z</time>
      </trkpt>
      <trkpt lat="45.44928" lon="4.11638">
        <ele>653.35</ele>
        <time>2023-07-01T15:12:12Z</time>
      </trkpt>
      <trkpt lat="45.44919" lon="4.11668">
        <ele>650.47</ele>
        <time>2023-07-01T15:12:28Z</time>
      </trkpt>
      <trkpt lat="45.44905" lon="4.11708">
        <ele>650.95</ele>
        <time>2023-07-01T15:12:48Z</time>
      </trkpt>
      <trkpt lat="45.44904" lon="4.11709">
        <ele>650.95</ele>
        <time>2023-07-01T15:12:49Z</time>
      </trkpt>
      <trkpt lat="45.44903" lon="4.11711">
        <ele>650.95</ele>
        <time>2023-07-01T15:12:50Z</time>
      </trkpt>
      <trkpt lat="45.44883" lon="4.11727">
        <ele>650.47</ele>
        <time>2023-07-01T15:13:06Z</time>
      </trkpt>
      <trkpt lat="45.44876" lon="4.11767">
        <ele>650.47</ele>
        <time>2023-07-01T15:13:25Z</time>
      </trkpt>
      <trkpt lat="45.44884" lon="4.11799">
        <ele>649.99</ele>
        <time>2023-07-01T15:13:41Z</time>
      </trkpt>
      <trkpt lat="45.44896" lon="4.11848">
        <ele>649.51</ele>
        <time>2023-07-01T15:14:05Z</time>
      </trkpt>
      <trkpt lat="45.44906" lon="4.11894">
        <ele>651.43</ele>
        <time>2023-07-01T15:14:27Z</time>
      </trkpt>
      <trkpt lat="45.44912" lon="4.11939">
        <ele>651.91</ele>
        <time>2023-07-01T15:14:48Z</time>
      </trkpt>
      <trkpt lat="45.44921" lon="4.11972">
        <ele>652.39</ele>
        <time>2023-07-01T15:15:06Z</time>
      </trkpt>
      <trkpt lat="45.44935" lon="4.12001">
        <ele>651.91</ele>
        <time>2023-07-01T15:15:23Z</time>
      </trkpt>
      <trkpt lat="45.44954" lon="4.12035">
        <ele>653.83</ele>
        <time>2023-07-01T15:15:42Z</time>
      </trkpt>
      <trkpt lat="45.44975" lon="4.12066">
        <ele>653.35</ele>
        <time>2023-07-01T15:16:04Z</time>
      </trkpt>
      <trkpt lat="45.44995" lon="4.12095">
        <ele>651.43</ele>
        <time>2023-07-01T15:16:23Z</time>
      </trkpt>
      <trkpt lat="45.45001" lon="4.12135">
        <ele>649.51</ele>
        <time>2023-07-01T15:16:42Z</time>
      </trkpt>
      <trkpt lat="45.44998" lon="4.12177">
        <ele>647.1</ele>
        <time>2023-07-01T15:17:01Z</time>
      </trkpt>
      <trkpt lat="45.44997" lon="4.12211">
        <ele>646.14</ele>
        <time>2023-07-01T15:17:18Z</time>
      </trkpt>
      <trkpt lat="45.45" lon="4.12249">
        <ele>645.66</ele>
        <time>2023-07-01T15:17:36Z</time>
      </trkpt>
      <trkpt lat="45.45006" lon="4.12285">
        <ele>643.74</ele>
        <time>2023-07-01T15:17:53Z</time>
      </trkpt>
      <trkpt lat="45.45013" lon="4.12312">
        <ele>640.86</ele>
        <time>2023-07-01T15:18:07Z</time>
      </trkpt>
      <trkpt lat="45.45023" lon="4.1235">
        <ele>639.89</ele>
        <time>2023-07-01T15:18:25Z</time>
      </trkpt>
      <trkpt lat="45.45033" lon="4.12383">
        <ele>639.41</ele>
        <time>2023-07-01T15:18:41Z</time>
      </trkpt>
      <trkpt lat="45.45045" lon="4.12419">
        <ele>639.41</ele>
        <time>2023-07-01T15:18:57Z</time>
      </trkpt>
      <trkpt lat="45.45055" lon="4.12456">
        <ele>639.41</ele>
        <time>2023-07-01T15:19:15Z</time>
      </trkpt>
      <trkpt lat="45.45066" lon="4.12493">
        <ele>639.41</ele>
        <time>2023-07-01T15:19:32Z</time>
      </trkpt>
      <trkpt lat="45.45072" lon="4.12524">
        <ele>637.49</ele>
        <time>2023-07-01T15:19:47Z</time>
      </trkpt>
      <trkpt lat="45.45078" lon="4.12563">
        <ele>635.09</ele>
        <time>2023-07-01T15:20:05Z</time>
      </trkpt>
      <trkpt lat="45.45086" lon="4.126">
        <ele>631.24</ele>
        <time>2023-07-01T15:20:22Z</time>
      </trkpt>
      <trkpt lat="45.45091" lon="4.12639">
        <ele>627.4</ele>
        <time>2023-07-01T15:20:40Z</time>
      </trkpt>
      <trkpt lat="45.45097" lon="4.12672">
        <ele>627.4</ele>
        <time>2023-07-01T15:20:55Z</time>
      </trkpt>
      <trkpt lat="45.45103" lon="4.12704">
        <ele>624.99</ele>
        <time>2023-07-01T15:21:10Z</time>
      </trkpt>
      <trkpt lat="45.45112" lon="4.12748">
        <ele>621.15</ele>
        <time>2023-07-01T15:21:29Z</time>
      </trkpt>
      <trkpt lat="45.45122" lon="4.12782">
        <ele>617.3</ele>
        <time>2023-07-01T15:21:45Z</time>
      </trkpt>
      <trkpt lat="45.45131" lon="4.12817">
        <ele>615.38</ele>
        <time>2023-07-01T15:22:02Z</time>
      </trkpt>
      <trkpt lat="45.45139" lon="4.12849">
        <ele>612.98</ele>
        <time>2023-07-01T15:22:19Z</time>
      </trkpt>
      <trkpt lat="45.45155" lon="4.12878">
        <ele>612.02</ele>
        <time>2023-07-01T15:22:36Z</time>
      </trkpt>
      <trkpt lat="45.45179" lon="4.12904">
        <ele>611.06</ele>
        <time>2023-07-01T15:22:56Z</time>
      </trkpt>
      <trkpt lat="45.45194" lon="4.12929">
        <ele>608.65</ele>
        <time>2023-07-01T15:23:11Z</time>
      </trkpt>
      <trkpt lat="45.4521" lon="4.12963">
        <ele>609.13</ele>
        <time>2023-07-01T15:23:29Z</time>
      </trkpt>
      <trkpt lat="45.45228" lon="4.12982">
        <ele>610.09</ele>
        <time>2023-07-01T15:23:45Z</time>
      </trkpt>
      <trkpt lat="45.45253" lon="4.13001">
        <ele>610.57</ele>
        <time>2023-07-01T15:24:02Z</time>
      </trkpt>
      <trkpt lat="45.45271" lon="4.13019">
        <ele>609.13</ele>
        <time>2023-07-01T15:24:17Z</time>
      </trkpt>
      <trkpt lat="45.45292" lon="4.13038">
        <ele>607.69</ele>
        <time>2023-07-01T15:24:32Z</time>
      </trkpt>
      <trkpt lat="45.45304" lon="4.13066">
        <ele>607.21</ele>
        <time>2023-07-01T15:24:48Z</time>
      </trkpt>
      <trkpt lat="45.45308" lon="4.13077">
        <ele>604.81</ele>
        <time>2023-07-01T15:24:54Z</time>
      </trkpt>
      <trkpt lat="45.4531" lon="4.13079">
        <ele>604.81</ele>
        <time>2023-07-01T15:24:55Z</time>
      </trkpt>
      <trkpt lat="45.45322" lon="4.13101">
        <ele>602.88</ele>
        <time>2023-07-01T15:25:09Z</time>
      </trkpt>
      <trkpt lat="45.45332" lon="4.13112">
        <ele>602.4</ele>
        <time>2023-07-01T15:25:16Z</time>
      </trkpt>
      <trkpt lat="45.45333" lon="4.13114">
        <ele>601.92</ele>
        <time>2023-07-01T15:25:17Z</time>
      </trkpt>
      <trkpt lat="45.45349" lon="4.13135">
        <ele>599.04</ele>
        <time>2023-07-01T15:25:32Z</time>
      </trkpt>
      <trkpt lat="45.45352" lon="4.1314">
        <ele>599.04</ele>
        <time>2023-07-01T15:25:35Z</time>
      </trkpt>
      <trkpt lat="45.45369" lon="4.13166">
        <ele>600.96</ele>
        <time>2023-07-01T15:25:50Z</time>
      </trkpt>
      <trkpt lat="45.4539" lon="4.13189">
        <ele>600.96</ele>
        <time>2023-07-01T15:26:07Z</time>
      </trkpt>
      <trkpt lat="45.45401" lon="4.13208">
        <ele>598.56</ele>
        <time>2023-07-01T15:26:19Z</time>
      </trkpt>
      <trkpt lat="45.45415" lon="4.13232">
        <ele>597.6</ele>
        <time>2023-07-01T15:26:34Z</time>
      </trkpt>
      <trkpt lat="45.4543" lon="4.13265">
        <ele>600</ele>
        <time>2023-07-01T15:26:52Z</time>
      </trkpt>
      <trkpt lat="45.45434" lon="4.13272">
        <ele>599.04</ele>
        <time>2023-07-01T15:26:56Z</time>
      </trkpt>
      <trkpt lat="45.45434" lon="4.13274">
        <ele>598.56</ele>
        <time>2023-07-01T15:26:57Z</time>
      </trkpt>
      <trkpt lat="45.45435" lon="4.13276">
        <ele>598.08</ele>
        <time>2023-07-01T15:26:58Z</time>
      </trkpt>
      <trkpt lat="45.45436" lon="4.13278">
        <ele>598.08</ele>
        <time>2023-07-01T15:26:59Z</time>
      </trkpt>
      <trkpt lat="45.45437" lon="4.1328">
        <ele>597.6</ele>
        <time>2023-07-01T15:27:00Z</time>
      </trkpt>
      <trkpt lat="45.45448" lon="4.13298">
        <ele>596.64</ele>
        <time>2023-07-01T15:27:11Z</time>
      </trkpt>
      <trkpt lat="45.45462" lon="4.13314">
        <ele>592.79</ele>
        <time>2023-07-01T15:27:24Z</time>
      </trkpt>
      <trkpt lat="45.4547" lon="4.13327">
        <ele>592.79</ele>
        <time>2023-07-01T15:27:31Z</time>
      </trkpt>
      <trkpt lat="45.4547" lon="4.13329">
        <ele>592.79</ele>
        <time>2023-07-01T15:27:32Z</time>
      </trkpt>
      <trkpt lat="45.45482" lon="4.13356">
        <ele>594.71</ele>
        <time>2023-07-01T15:27:47Z</time>
      </trkpt>
      <trkpt lat="45.45494" lon="4.13372">
        <ele>593.27</ele>
        <time>2023-07-01T15:27:59Z</time>
      </trkpt>
      <trkpt lat="45.45496" lon="4.13379">
        <ele>592.79</ele>
        <time>2023-07-01T15:28:03Z</time>
      </trkpt>
      <trkpt lat="45.45498" lon="4.13381">
        <ele>592.79</ele>
        <time>2023-07-01T15:28:04Z</time>
      </trkpt>
      <trkpt lat="45.45499" lon="4.13383">
        <ele>593.27</ele>
        <time>2023-07-01T15:28:05Z</time>
      </trkpt>
      <trkpt lat="45.455" lon="4.13385">
        <ele>592.79</ele>
        <time>2023-07-01T15:28:06Z</time>
      </trkpt>
      <trkpt lat="45.45502" lon="4.13389">
        <ele>591.83</ele>
        <time>2023-07-01T15:28:08Z</time>
      </trkpt>
      <trkpt lat="45.45503" lon="4.13391">
        <ele>591.83</ele>
        <time>2023-07-01T15:28:09Z</time>
      </trkpt>
      <trkpt lat="45.45505" lon="4.13394">
        <ele>591.35</ele>
        <time>2023-07-01T15:28:10Z</time>
      </trkpt>
      <trkpt lat="45.45506" lon="4.13396">
        <ele>590.87</ele>
        <time>2023-07-01T15:28:11Z</time>
      </trkpt>
      <trkpt lat="45.45507" lon="4.13398">
        <ele>590.39</ele>
        <time>2023-07-01T15:28:12Z</time>
      </trkpt>
      <trkpt lat="45.45518" lon="4.1343">
        <ele>582.7</ele>
        <time>2023-07-01T15:28:29Z</time>
      </trkpt>
      <trkpt lat="45.45531" lon="4.13449">
        <ele>577.89</ele>
        <time>2023-07-01T15:28:41Z</time>
      </trkpt>
      <trkpt lat="45.45531" lon="4.13451">
        <ele>577.41</ele>
        <time>2023-07-01T15:28:42Z</time>
      </trkpt>
      <trkpt lat="45.45543" lon="4.13474">
        <ele>576.93</ele>
        <time>2023-07-01T15:28:57Z</time>
      </trkpt>
      <trkpt lat="45.45556" lon="4.13494">
        <ele>578.37</ele>
        <time>2023-07-01T15:29:10Z</time>
      </trkpt>
      <trkpt lat="45.45569" lon="4.13515">
        <ele>579.81</ele>
        <time>2023-07-01T15:29:22Z</time>
      </trkpt>
      <trkpt lat="45.45571" lon="4.13516">
        <ele>580.29</ele>
        <time>2023-07-01T15:29:23Z</time>
      </trkpt>
      <trkpt lat="45.45573" lon="4.13518">
        <ele>580.29</ele>
        <time>2023-07-01T15:29:24Z</time>
      </trkpt>
      <trkpt lat="45.45575" lon="4.1352">
        <ele>580.29</ele>
        <time>2023-07-01T15:29:25Z</time>
      </trkpt>
      <trkpt lat="45.45577" lon="4.13521">
        <ele>580.77</ele>
        <time>2023-07-01T15:29:26Z</time>
      </trkpt>
      <trkpt lat="45.45592" lon="4.13532">
        <ele>582.22</ele>
        <time>2023-07-01T15:29:37Z</time>
      </trkpt>
      <trkpt lat="45.45614" lon="4.13541">
        <ele>583.18</ele>
        <time>2023-07-01T15:29:49Z</time>
      </trkpt>
      <trkpt lat="45.45628" lon="4.13546">
        <ele>585.58</ele>
        <time>2023-07-01T15:30:00Z</time>
      </trkpt>
      <trkpt lat="45.45641" lon="4.13551">
        <ele>587.02</ele>
        <time>2023-07-01T15:30:09Z</time>
      </trkpt>
      <trkpt lat="45.45643" lon="4.13552">
        <ele>587.02</ele>
        <time>2023-07-01T15:30:10Z</time>
      </trkpt>
      <trkpt lat="45.45645" lon="4.13553">
        <ele>587.02</ele>
        <time>2023-07-01T15:30:11Z</time>
      </trkpt>
      <trkpt lat="45.45665" lon="4.13569">
        <ele>583.66</ele>
        <time>2023-07-01T15:30:23Z</time>
      </trkpt>
      <trkpt lat="45.45684" lon="4.13587">
        <ele>577.41</ele>
        <time>2023-07-01T15:30:36Z</time>
      </trkpt>
      <trkpt lat="45.45699" lon="4.13613">
        <ele>575.97</ele>
        <time>2023-07-01T15:30:51Z</time>
      </trkpt>
      <trkpt lat="45.457" lon="4.13615">
        <ele>575.49</ele>
        <time>2023-07-01T15:30:52Z</time>
      </trkpt>
      <trkpt lat="45.45704" lon="4.13639">
        <ele>573.08</ele>
        <time>2023-07-01T15:31:05Z</time>
      </trkpt>
      <trkpt lat="45.45715" lon="4.13669">
        <ele>573.56</ele>
        <time>2023-07-01T15:31:19Z</time>
      </trkpt>
      <trkpt lat="45.4572" lon="4.13684">
        <ele>573.56</ele>
        <time>2023-07-01T15:31:26Z</time>
      </trkpt>
      <trkpt lat="45.45722" lon="4.13686">
        <ele>573.56</ele>
        <time>2023-07-01T15:31:27Z</time>
      </trkpt>
      <trkpt lat="45.45723" lon="4.13688">
        <ele>574.04</ele>
        <time>2023-07-01T15:31:28Z</time>
      </trkpt>
      <trkpt lat="45.45725" lon="4.13689">
        <ele>574.04</ele>
        <time>2023-07-01T15:31:29Z</time>
      </trkpt>
      <trkpt lat="45.45726" lon="4.13691">
        <ele>574.53</ele>
        <time>2023-07-01T15:31:30Z</time>
      </trkpt>
      <trkpt lat="45.45728" lon="4.13692">
        <ele>574.53</ele>
        <time>2023-07-01T15:31:31Z</time>
      </trkpt>
      <trkpt lat="45.45729" lon="4.13693">
        <ele>574.53</ele>
        <time>2023-07-01T15:31:32Z</time>
      </trkpt>
      <trkpt lat="45.4573" lon="4.13694">
        <ele>574.53</ele>
        <time>2023-07-01T15:31:33Z</time>
      </trkpt>
      <trkpt lat="45.45732" lon="4.13696">
        <ele>574.53</ele>
        <time>2023-07-01T15:31:34Z</time>
      </trkpt>
      <trkpt lat="45.45733" lon="4.13697">
        <ele>574.53</ele>
        <time>2023-07-01T15:31:35Z</time>
      </trkpt>
      <trkpt lat="45.45733" lon="4.13699">
        <ele>574.04</ele>
        <time>2023-07-01T15:31:36Z</time>
      </trkpt>
      <trkpt lat="45.45734" lon="4.13701">
        <ele>574.04</ele>
        <time>2023-07-01T15:31:37Z</time>
      </trkpt>
      <trkpt lat="45.45735" lon="4.13703">
        <ele>574.04</ele>
        <time>2023-07-01T15:31:38Z</time>
      </trkpt>
      <trkpt lat="45.45736" lon="4.13705">
        <ele>574.04</ele>
        <time>2023-07-01T15:31:39Z</time>
      </trkpt>
      <trkpt lat="45.45737" lon="4.13707">
        <ele>574.53</ele>
        <time>2023-07-01T15:31:40Z</time>
      </trkpt>
      <trkpt lat="45.45738" lon="4.13709">
        <ele>574.53</ele>
        <time>2023-07-01T15:31:41Z</time>
      </trkpt>
      <trkpt lat="45.45738" lon="4.13711">
        <ele>574.53</ele>
        <time>2023-07-01T15:31:42Z</time>
      </trkpt>
      <trkpt lat="45.45739" lon="4.13713">
        <ele>574.53</ele>
        <time>2023-07-01T15:31:43Z</time>
      </trkpt>
      <trkpt lat="45.45747" lon="4.13734">
        <ele>571.64</ele>
        <time>2023-07-01T15:31:57Z</time>
      </trkpt>
      <trkpt lat="45.45749" lon="4.13738">
        <ele>569.24</ele>
        <time>2023-07-01T15:32:12Z</time>
      </trkpt>
      <trkpt lat="45.45752" lon="4.13744">
        <ele>569.24</ele>
        <time>2023-07-01T15:32:33Z</time>
      </trkpt>
      <trkpt lat="45.45752" lon="4.13746">
        <ele>569.24</ele>
        <time>2023-07-01T15:32:49Z</time>
      </trkpt>
      <trkpt lat="45.45753" lon="4.13749">
        <ele>569.24</ele>
        <time>2023-07-01T15:33:07Z</time>
      </trkpt>
      <trkpt lat="45.45756" lon="4.13754">
        <ele>570.68</ele>
        <time>2023-07-01T15:33:31Z</time>
      </trkpt>
      <trkpt lat="45.45756" lon="4.13755">
        <ele>571.16</ele>
        <time>2023-07-01T15:33:32Z</time>
      </trkpt>
      <trkpt lat="45.45757" lon="4.13757">
        <ele>571.16</ele>
        <time>2023-07-01T15:33:33Z</time>
      </trkpt>
      <trkpt lat="45.45758" lon="4.13758">
        <ele>571.64</ele>
        <time>2023-07-01T15:33:34Z</time>
      </trkpt>
      <trkpt lat="45.45758" lon="4.1376">
        <ele>571.64</ele>
        <time>2023-07-01T15:33:35Z</time>
      </trkpt>
      <trkpt lat="45.45759" lon="4.13762">
        <ele>571.64</ele>
        <time>2023-07-01T15:33:36Z</time>
      </trkpt>
      <trkpt lat="45.4576" lon="4.13764">
        <ele>572.6</ele>
        <time>2023-07-01T15:33:37Z</time>
      </trkpt>
      <trkpt lat="45.45761" lon="4.13767">
        <ele>572.6</ele>
        <time>2023-07-01T15:33:38Z</time>
      </trkpt>
      <trkpt lat="45.45762" lon="4.13769">
        <ele>572.6</ele>
        <time>2023-07-01T15:33:39Z</time>
      </trkpt>
      <trkpt lat="45.45762" lon="4.13769">
        <ele>572.6</ele>
        <time>2023-07-01T15:33:47Z</time>
      </trkpt>
      <trkpt lat="45.45751" lon="4.13746">
        <ele>570.68</ele>
        <time>2023-07-01T15:33:59Z</time>
      </trkpt>
      <trkpt lat="45.45735" lon="4.13709">
        <ele>571.16</ele>
        <time>2023-07-01T15:34:06Z</time>
      </trkpt>
      <trkpt lat="45.45725" lon="4.13694">
        <ele>574.04</ele>
        <time>2023-07-01T15:34:14Z</time>
      </trkpt>
      <trkpt lat="45.45721" lon="4.1369">
        <ele>574.53</ele>
        <time>2023-07-01T15:34:21Z</time>
      </trkpt>
      <trkpt lat="45.45719" lon="4.13691">
        <ele>574.53</ele>
        <time>2023-07-01T15:34:22Z</time>
      </trkpt>
      <trkpt lat="45.45718" lon="4.13691">
        <ele>574.53</ele>
        <time>2023-07-01T15:34:23Z</time>
      </trkpt>
      <trkpt lat="45.45716" lon="4.13691">
        <ele>574.53</ele>
        <time>2023-07-01T15:34:24Z</time>
      </trkpt>
      <trkpt lat="45.45714" lon="4.13691">
        <ele>574.53</ele>
        <time>2023-07-01T15:34:25Z</time>
      </trkpt>
      <trkpt lat="45.45712" lon="4.1369">
        <ele>574.53</ele>
        <time>2023-07-01T15:34:26Z</time>
      </trkpt>
      <trkpt lat="45.45698" lon="4.13681">
        <ele>574.53</ele>
        <time>2023-07-01T15:34:38Z</time>
      </trkpt>
      <trkpt lat="45.45681" lon="4.13666">
        <ele>577.41</ele>
        <time>2023-07-01T15:34:51Z</time>
      </trkpt>
      <trkpt lat="45.45664" lon="4.13652">
        <ele>579.33</ele>
        <time>2023-07-01T15:35:05Z</time>
      </trkpt>
      <trkpt lat="45.45662" lon="4.13651">
        <ele>579.81</ele>
        <time>2023-07-01T15:35:06Z</time>
      </trkpt>
      <trkpt lat="45.4566" lon="4.13649">
        <ele>580.29</ele>
        <time>2023-07-01T15:35:07Z</time>
      </trkpt>
      <trkpt lat="45.45658" lon="4.13647">
        <ele>580.29</ele>
        <time>2023-07-01T15:35:08Z</time>
      </trkpt>
      <trkpt lat="45.45657" lon="4.13646">
        <ele>580.77</ele>
        <time>2023-07-01T15:35:09Z</time>
      </trkpt>
      <trkpt lat="45.45652" lon="4.1364">
        <ele>583.66</ele>
        <time>2023-07-01T15:35:14Z</time>
      </trkpt>
      <trkpt lat="45.45634" lon="4.13628">
        <ele>588.46</ele>
        <time>2023-07-01T15:35:27Z</time>
      </trkpt>
      <trkpt lat="45.4563" lon="4.13626">
        <ele>588.46</ele>
        <time>2023-07-01T15:35:29Z</time>
      </trkpt>
      <trkpt lat="45.45625" lon="4.13623">
        <ele>588.95</ele>
        <time>2023-07-01T15:35:33Z</time>
      </trkpt>
      <trkpt lat="45.45623" lon="4.13622">
        <ele>588.46</ele>
        <time>2023-07-01T15:35:34Z</time>
      </trkpt>
      <trkpt lat="45.45609" lon="4.13613">
        <ele>588.46</ele>
        <time>2023-07-01T15:35:46Z</time>
      </trkpt>
      <trkpt lat="45.45589" lon="4.13599">
        <ele>586.54</ele>
        <time>2023-07-01T15:35:58Z</time>
      </trkpt>
      <trkpt lat="45.45584" lon="4.13597">
        <ele>586.06</ele>
        <time>2023-07-01T15:36:01Z</time>
      </trkpt>
      <trkpt lat="45.45583" lon="4.13596">
        <ele>586.06</ele>
        <time>2023-07-01T15:36:02Z</time>
      </trkpt>
      <trkpt lat="45.45566" lon="4.13589">
        <ele>587.02</ele>
        <time>2023-07-01T15:36:11Z</time>
      </trkpt>
      <trkpt lat="45.45565" lon="4.13588">
        <ele>587.5</ele>
        <time>2023-07-01T15:36:12Z</time>
      </trkpt>
      <trkpt lat="45.45562" lon="4.13589">
        <ele>587.98</ele>
        <time>2023-07-01T15:36:13Z</time>
      </trkpt>
      <trkpt lat="45.4556" lon="4.13589">
        <ele>588.95</ele>
        <time>2023-07-01T15:36:14Z</time>
      </trkpt>
      <trkpt lat="45.45558" lon="4.13589">
        <ele>589.43</ele>
        <time>2023-07-01T15:36:15Z</time>
      </trkpt>
      <trkpt lat="45.45541" lon="4.13579">
        <ele>595.67</ele>
        <time>2023-07-01T15:36:28Z</time>
      </trkpt>
      <trkpt lat="45.45526" lon="4.13564">
        <ele>601.44</ele>
        <time>2023-07-01T15:36:41Z</time>
      </trkpt>
      <trkpt lat="45.4552" lon="4.13561">
        <ele>601.92</ele>
        <time>2023-07-01T15:36:44Z</time>
      </trkpt>
      <trkpt lat="45.45519" lon="4.13559">
        <ele>601.92</ele>
        <time>2023-07-01T15:36:45Z</time>
      </trkpt>
      <trkpt lat="45.45517" lon="4.13557">
        <ele>601.92</ele>
        <time>2023-07-01T15:36:46Z</time>
      </trkpt>
      <trkpt lat="45.45515" lon="4.13556">
        <ele>601.92</ele>
        <time>2023-07-01T15:36:47Z</time>
      </trkpt>
      <trkpt lat="45.45514" lon="4.13554">
        <ele>602.4</ele>
        <time>2023-07-01T15:36:48Z</time>
      </trkpt>
      <trkpt lat="45.45512" lon="4.13553">
        <ele>602.4</ele>
        <time>2023-07-01T15:36:49Z</time>
      </trkpt>
      <trkpt lat="45.45511" lon="4.13551">
        <ele>602.88</ele>
        <time>2023-07-01T15:36:50Z</time>
      </trkpt>
      <trkpt lat="45.45509" lon="4.1355">
        <ele>603.36</ele>
        <time>2023-07-01T15:36:51Z</time>
      </trkpt>
      <trkpt lat="45.45492" lon="4.1353">
        <ele>602.4</ele>
        <time>2023-07-01T15:37:05Z</time>
      </trkpt>
      <trkpt lat="45.4549" lon="4.13527">
        <ele>601.92</ele>
        <time>2023-07-01T15:37:07Z</time>
      </trkpt>
      <trkpt lat="45.45488" lon="4.13524">
        <ele>601.44</ele>
        <time>2023-07-01T15:37:08Z</time>
      </trkpt>
      <trkpt lat="45.45485" lon="4.13518">
        <ele>600.96</ele>
        <time>2023-07-01T15:37:11Z</time>
      </trkpt>
      <trkpt lat="45.45483" lon="4.13516">
        <ele>600</ele>
        <time>2023-07-01T15:37:12Z</time>
      </trkpt>
      <trkpt lat="45.45464" lon="4.13501">
        <ele>601.92</ele>
        <time>2023-07-01T15:37:26Z</time>
      </trkpt>
      <trkpt lat="45.45447" lon="4.13487">
        <ele>604.33</ele>
        <time>2023-07-01T15:37:38Z</time>
      </trkpt>
      <trkpt lat="45.45443" lon="4.13481">
        <ele>605.77</ele>
        <time>2023-07-01T15:37:42Z</time>
      </trkpt>
      <trkpt lat="45.45421" lon="4.1348">
        <ele>611.06</ele>
        <time>2023-07-01T15:37:57Z</time>
      </trkpt>
      <trkpt lat="45.45403" lon="4.1347">
        <ele>611.54</ele>
        <time>2023-07-01T15:38:08Z</time>
      </trkpt>
      <trkpt lat="45.45385" lon="4.13459">
        <ele>612.5</ele>
        <time>2023-07-01T15:38:21Z</time>
      </trkpt>
      <trkpt lat="45.45384" lon="4.13458">
        <ele>612.5</ele>
        <time>2023-07-01T15:38:22Z</time>
      </trkpt>
      <trkpt lat="45.45367" lon="4.13457">
        <ele>612.98</ele>
        <time>2023-07-01T15:38:35Z</time>
      </trkpt>
      <trkpt lat="45.45348" lon="4.13462">
        <ele>618.26</ele>
        <time>2023-07-01T15:38:49Z</time>
      </trkpt>
      <trkpt lat="45.45325" lon="4.13469">
        <ele>622.59</ele>
        <time>2023-07-01T15:39:05Z</time>
      </trkpt>
      <trkpt lat="45.45314" lon="4.13478">
        <ele>623.55</ele>
        <time>2023-07-01T15:39:11Z</time>
      </trkpt>
      <trkpt lat="45.45313" lon="4.13479">
        <ele>623.55</ele>
        <time>2023-07-01T15:39:12Z</time>
      </trkpt>
      <trkpt lat="45.45289" lon="4.13489">
        <ele>628.36</ele>
        <time>2023-07-01T15:39:27Z</time>
      </trkpt>
      <trkpt lat="45.45268" lon="4.13488">
        <ele>630.28</ele>
        <time>2023-07-01T15:39:41Z</time>
      </trkpt>
      <trkpt lat="45.45241" lon="4.13494">
        <ele>630.76</ele>
        <time>2023-07-01T15:39:55Z</time>
      </trkpt>
      <trkpt lat="45.4522" lon="4.13498">
        <ele>633.17</ele>
        <time>2023-07-01T15:40:08Z</time>
      </trkpt>
      <trkpt lat="45.452" lon="4.13511">
        <ele>633.17</ele>
        <time>2023-07-01T15:40:23Z</time>
      </trkpt>
      <trkpt lat="45.45187" lon="4.13517">
        <ele>631.24</ele>
        <time>2023-07-01T15:40:32Z</time>
      </trkpt>
      <trkpt lat="45.45166" lon="4.13522">
        <ele>630.28</ele>
        <time>2023-07-01T15:40:48Z</time>
      </trkpt>
      <trkpt lat="45.45141" lon="4.13532">
        <ele>632.68</ele>
        <time>2023-07-01T15:41:04Z</time>
      </trkpt>
      <trkpt lat="45.45137" lon="4.13531">
        <ele>633.65</ele>
        <time>2023-07-01T15:41:19Z</time>
      </trkpt>
      <trkpt lat="45.45137" lon="4.13529">
        <ele>634.13</ele>
        <time>2023-07-01T15:41:51Z</time>
      </trkpt>
      <trkpt lat="45.45136" lon="4.13527">
        <ele>633.17</ele>
        <time>2023-07-01T15:42:16Z</time>
      </trkpt>
      <trkpt lat="45.45135" lon="4.13527">
        <ele>634.61</ele>
        <time>2023-07-01T15:42:52Z</time>
      </trkpt>
      <trkpt lat="45.45134" lon="4.13527">
        <ele>634.13</ele>
        <time>2023-07-01T15:43:16Z</time>
      </trkpt>
      <trkpt lat="45.45135" lon="4.13526">
        <ele>633.17</ele>
        <time>2023-07-01T15:43:42Z</time>
      </trkpt>
      <trkpt lat="45.45133" lon="4.13525">
        <ele>632.2</ele>
        <time>2023-07-01T15:44:02Z</time>
      </trkpt>
      <trkpt lat="45.45132" lon="4.13523">
        <ele>631.72</ele>
        <time>2023-07-01T15:44:03Z</time>
      </trkpt>
      <trkpt lat="45.45131" lon="4.13522">
        <ele>631.72</ele>
        <time>2023-07-01T15:44:04Z</time>
      </trkpt>
      <trkpt lat="45.45129" lon="4.13521">
        <ele>631.72</ele>
        <time>2023-07-01T15:44:05Z</time>
      </trkpt>
      <trkpt lat="45.45128" lon="4.13522">
        <ele>631.72</ele>
        <time>2023-07-01T15:44:06Z</time>
      </trkpt>
      <trkpt lat="45.45126" lon="4.13522">
        <ele>631.72</ele>
        <time>2023-07-01T15:44:07Z</time>
      </trkpt>
      <trkpt lat="45.45124" lon="4.13522">
        <ele>631.72</ele>
        <time>2023-07-01T15:44:08Z</time>
      </trkpt>
      <trkpt lat="45.45122" lon="4.13523">
        <ele>631.72</ele>
        <time>2023-07-01T15:44:09Z</time>
      </trkpt>
      <trkpt lat="45.45096" lon="4.13544">
        <ele>633.17</ele>
        <time>2023-07-01T15:44:29Z</time>
      </trkpt>
      <trkpt lat="45.45068" lon="4.13563">
        <ele>634.61</ele>
        <time>2023-07-01T15:44:49Z</time>
      </trkpt>
      <trkpt lat="45.45043" lon="4.13544">
        <ele>635.09</ele>
        <time>2023-07-01T15:45:08Z</time>
      </trkpt>
      <trkpt lat="45.45015" lon="4.13516">
        <ele>636.53</ele>
        <time>2023-07-01T15:45:30Z</time>
      </trkpt>
      <trkpt lat="45.4498" lon="4.13489">
        <ele>638.93</ele>
        <time>2023-07-01T15:45:55Z</time>
      </trkpt>
      <trkpt lat="45.44942" lon="4.13487">
        <ele>640.38</ele>
        <time>2023-07-01T15:46:20Z</time>
      </trkpt>
      <trkpt lat="45.44915" lon="4.13488">
        <ele>642.3</ele>
        <time>2023-07-01T15:46:38Z</time>
      </trkpt>
      <trkpt lat="45.44889" lon="4.13493">
        <ele>641.82</ele>
        <time>2023-07-01T15:46:55Z</time>
      </trkpt>
      <trkpt lat="45.44859" lon="4.13489">
        <ele>640.38</ele>
        <time>2023-07-01T15:47:16Z</time>
      </trkpt>
      <trkpt lat="45.44831" lon="4.13466">
        <ele>637.01</ele>
        <time>2023-07-01T15:47:38Z</time>
      </trkpt>
      <trkpt lat="45.44813" lon="4.13455">
        <ele>635.09</ele>
        <time>2023-07-01T15:47:50Z</time>
      </trkpt>
      <trkpt lat="45.4478" lon="4.13433">
        <ele>633.65</ele>
        <time>2023-07-01T15:48:10Z</time>
      </trkpt>
      <trkpt lat="45.44758" lon="4.13404">
        <ele>635.57</ele>
        <time>2023-07-01T15:48:28Z</time>
      </trkpt>
      <trkpt lat="45.44739" lon="4.13384">
        <ele>636.53</ele>
        <time>2023-07-01T15:48:43Z</time>
      </trkpt>
      <trkpt lat="45.44716" lon="4.13364">
        <ele>637.49</ele>
        <time>2023-07-01T15:49:01Z</time>
      </trkpt>
      <trkpt lat="45.44706" lon="4.1336">
        <ele>635.57</ele>
        <time>2023-07-01T15:49:15Z</time>
      </trkpt>
      <trkpt lat="45.44703" lon="4.13359">
        <ele>636.05</ele>
        <time>2023-07-01T15:49:29Z</time>
      </trkpt>
      <trkpt lat="45.44693" lon="4.13356">
        <ele>637.01</ele>
        <time>2023-07-01T15:49:43Z</time>
      </trkpt>
      <trkpt lat="45.44677" lon="4.13349">
        <ele>637.01</ele>
        <time>2023-07-01T15:49:59Z</time>
      </trkpt>
      <trkpt lat="45.44655" lon="4.13335">
        <ele>637.49</ele>
        <time>2023-07-01T15:50:18Z</time>
      </trkpt>
      <trkpt lat="45.44638" lon="4.13315">
        <ele>638.45</ele>
        <time>2023-07-01T15:50:33Z</time>
      </trkpt>
      <trkpt lat="45.44632" lon="4.13286">
        <ele>632.68</ele>
        <time>2023-07-01T15:50:49Z</time>
      </trkpt>
      <trkpt lat="45.44631" lon="4.13257">
        <ele>630.28</ele>
        <time>2023-07-01T15:51:03Z</time>
      </trkpt>
      <trkpt lat="45.44631" lon="4.13225">
        <ele>632.2</ele>
        <time>2023-07-01T15:51:19Z</time>
      </trkpt>
      <trkpt lat="45.44619" lon="4.13198">
        <ele>630.28</ele>
        <time>2023-07-01T15:51:37Z</time>
      </trkpt>
      <trkpt lat="45.44603" lon="4.13174">
        <ele>633.17</ele>
        <time>2023-07-01T15:51:56Z</time>
      </trkpt>
      <trkpt lat="45.44592" lon="4.13158">
        <ele>631.72</ele>
        <time>2023-07-01T15:52:15Z</time>
      </trkpt>
      <trkpt lat="45.44591" lon="4.13158">
        <ele>633.65</ele>
        <time>2023-07-01T15:52:33Z</time>
      </trkpt>
      <trkpt lat="45.44588" lon="4.13146">
        <ele>634.61</ele>
        <time>2023-07-01T15:52:45Z</time>
      </trkpt>
      <trkpt lat="45.44584" lon="4.13126">
        <ele>636.05</ele>
        <time>2023-07-01T15:52:59Z</time>
      </trkpt>
      <trkpt lat="45.44582" lon="4.13124">
        <ele>636.05</ele>
        <time>2023-07-01T15:53:02Z</time>
      </trkpt>
      <trkpt lat="45.44581" lon="4.13123">
        <ele>636.05</ele>
        <time>2023-07-01T15:53:03Z</time>
      </trkpt>
      <trkpt lat="45.4458" lon="4.13122">
        <ele>636.05</ele>
        <time>2023-07-01T15:53:04Z</time>
      </trkpt>
      <trkpt lat="45.44579" lon="4.13121">
        <ele>636.05</ele>
        <time>2023-07-01T15:53:05Z</time>
      </trkpt>
      <trkpt lat="45.44578" lon="4.1312">
        <ele>635.57</ele>
        <time>2023-07-01T15:53:06Z</time>
      </trkpt>
      <trkpt lat="45.44561" lon="4.13107">
        <ele>632.68</ele>
        <time>2023-07-01T15:53:22Z</time>
      </trkpt>
      <trkpt lat="45.4456" lon="4.13097">
        <ele>630.28</ele>
        <time>2023-07-01T15:53:27Z</time>
      </trkpt>
      <trkpt lat="45.44561" lon="4.13096">
        <ele>630.28</ele>
        <time>2023-07-01T15:53:28Z</time>
      </trkpt>
      <trkpt lat="45.44561" lon="4.13094">
        <ele>629.8</ele>
        <time>2023-07-01T15:53:29Z</time>
      </trkpt>
      <trkpt lat="45.44566" lon="4.13082">
        <ele>631.24</ele>
        <time>2023-07-01T15:53:42Z</time>
      </trkpt>
      <trkpt lat="45.44567" lon="4.13084">
        <ele>631.72</ele>
        <time>2023-07-01T15:54:01Z</time>
      </trkpt>
      <trkpt lat="45.44568" lon="4.13085">
        <ele>633.17</ele>
        <time>2023-07-01T15:54:17Z</time>
      </trkpt>
      <trkpt lat="45.44568" lon="4.13083">
        <ele>632.68</ele>
        <time>2023-07-01T15:54:31Z</time>
      </trkpt>
      <trkpt lat="45.44568" lon="4.13084">
        <ele>632.2</ele>
        <time>2023-07-01T15:54:46Z</time>
      </trkpt>
      <trkpt lat="45.44567" lon="4.1308">
        <ele>632.2</ele>
        <time>2023-07-01T15:55:00Z</time>
      </trkpt>
      <trkpt lat="45.44564" lon="4.13085">
        <ele>636.05</ele>
        <time>2023-07-01T15:55:10Z</time>
      </trkpt>
      <trkpt lat="45.44565" lon="4.13085">
        <ele>634.13</ele>
        <time>2023-07-01T15:55:23Z</time>
      </trkpt>
      <trkpt lat="45.44565" lon="4.13085">
        <ele>632.68</ele>
        <time>2023-07-01T15:55:45Z</time>
      </trkpt>
      <trkpt lat="45.44566" lon="4.13081">
        <ele>632.68</ele>
        <time>2023-07-01T15:55:59Z</time>
      </trkpt>
      <trkpt lat="45.44564" lon="4.13081">
        <ele>633.65</ele>
        <time>2023-07-01T15:56:05Z</time>
      </trkpt>
      <trkpt lat="45.44565" lon="4.13082">
        <ele>633.17</ele>
        <time>2023-07-01T15:56:15Z</time>
      </trkpt>
      <trkpt lat="45.44564" lon="4.13083">
        <ele>636.05</ele>
        <time>2023-07-01T15:56:28Z</time>
      </trkpt>
      <trkpt lat="45.44563" lon="4.13081">
        <ele>636.53</ele>
        <time>2023-07-01T15:56:39Z</time>
      </trkpt>
      <trkpt lat="45.44563" lon="4.13083">
        <ele>637.97</ele>
        <time>2023-07-01T15:56:52Z</time>
      </trkpt>
      <trkpt lat="45.44562" lon="4.1308">
        <ele>637.01</ele>
        <time>2023-07-01T15:57:10Z</time>
      </trkpt>
      <trkpt lat="45.44563" lon="4.1308">
        <ele>635.57</ele>
        <time>2023-07-01T15:57:23Z</time>
      </trkpt>
      <trkpt lat="45.44564" lon="4.13081">
        <ele>636.05</ele>
        <time>2023-07-01T15:57:39Z</time>
      </trkpt>
      <trkpt lat="45.44563" lon="4.13083">
        <ele>634.13</ele>
        <time>2023-07-01T15:57:53Z</time>
      </trkpt>
      <trkpt lat="45.44564" lon="4.13083">
        <ele>634.13</ele>
        <time>2023-07-01T15:58:10Z</time>
      </trkpt>
    </trkseg>
  </trk>
</gpx>